Observation data for Mertzon on 03/10/2018      Previous  Date  Next       Current Mesonet Observations  Soil Data  Daily Summary Page  Observations in Plain Language
KME1 100600Z 19011KT 15/12 A2982 RMK A01 T01500116  RH  080%=      5-min Rain = 0
KME1 100601Z 19013KT 15/12 A2982 RMK A01 T01490116  RH  081%=      5-min Rain = 0
KME1 100602Z 19013KT 15/12 A2982 RMK A01 T01490117  RH  081%=      5-min Rain = 0
KME1 100603Z 20010KT 15/12 A2982 RMK A01 T01490117  RH  081%=      5-min Rain = 0
KME1 100604Z 19012G17KT 15/12 A2982 RMK A01 T01490117  RH  081%=      5-min Rain = 0
KME1 100605Z 19013KT 15/12 A2982 RMK A01 T01490117  RH  081%=      5-min Rain = 0
KME1 100606Z 19010KT 15/12 A2982 RMK A01 T01490117  RH  081%=      5-min Rain = 0
KME1 100607Z 19013KT 15/12 A2983 RMK A01 T01490117  RH  081%=      5-min Rain = 0
KME1 100608Z 19010KT 15/12 A2983 RMK A01 T01490117  RH  081%=      5-min Rain = 0
KME1 100609Z 19009KT 15/12 A2983 RMK A01 T01480116  RH  081%=      5-min Rain = 0
KME1 100610Z 19010KT 15/12 A2983 RMK A01 T01470116  RH  082%=      5-min Rain = 0
KME1 100611Z 19011KT 15/12 A2983 RMK A01 T01470117  RH  082%=      5-min Rain = 0
KME1 100612Z 19010KT 15/12 A2983 RMK A01 T01470117  RH  082%=      5-min Rain = 0
KME1 100613Z 19010KT 15/12 A2983 RMK A01 T01470117  RH  082%=      5-min Rain = 0
KME1 100614Z 20011KT 15/12 A2983 RMK A01 T01470117  RH  082%=      5-min Rain = 0
KME1 100615Z 19011G16KT 15/12 A2983 RMK A01 T01470117  RH  083%=      5-min Rain = 0
KME1 100616Z 19010KT 15/12 A2983 RMK A01 T01470117  RH  082%=      5-min Rain = 0
KME1 100617Z 19011KT 15/12 A2983 RMK A01 T01470117  RH  083%=      5-min Rain = 0
KME1 100618Z 19013KT 15/12 A2983 RMK A01 T01460118  RH  083%=      5-min Rain = 0
KME1 100619Z 19011KT 15/12 A2983 RMK A01 T01470118  RH  083%=      5-min Rain = 0
KME1 100620Z 19011KT 15/12 A2983 RMK A01 T01470118  RH  083%=      5-min Rain = 0
KME1 100621Z 19011KT 15/12 A2983 RMK A01 T01470118  RH  083%=      5-min Rain = 0
KME1 100622Z 19011KT 15/12 A2983 RMK A01 T01460118  RH  083%=      5-min Rain = 0
KME1 100623Z 19011KT 15/12 A2983 RMK A01 T01460118  RH  083%=      5-min Rain = 0
KME1 100624Z 20008KT 15/12 A2983 RMK A01 T01460118  RH  083%=      5-min Rain = 0
KME1 100625Z 19011KT 15/12 A2983 RMK A01 T01460118  RH  083%=      5-min Rain = 0
KME1 100626Z 19010KT 15/12 A2983 RMK A01 T01450118  RH  083%=      5-min Rain = 0
KME1 100627Z 19008KT 15/12 A2983 RMK A01 T01450118  RH  084%=      5-min Rain = 0
KME1 100628Z 19009KT 15/12 A2983 RMK A01 T01450117  RH  084%=      5-min Rain = 0
KME1 100629Z 19008KT 14/12 A2983 RMK A01 T01440117  RH  084%=      5-min Rain = 0
KME1 100630Z 19010KT 14/12 A2983 RMK A01 T01440117  RH  084%=      5-min Rain = 0
KME1 100631Z 19010KT 14/12 A2983 RMK A01 T01440118  RH  084%=      5-min Rain = 0
KME1 100632Z 19011KT 14/12 A2983 RMK A01 T01440118  RH  085%=      5-min Rain = 0
KME1 100633Z 19010KT 14/12 A2983 RMK A01 T01440118  RH  084%=      5-min Rain = 0
KME1 100634Z 19010KT 14/12 A2983 RMK A01 T01440118  RH  084%=      5-min Rain = 0
KME1 100635Z 19011KT 14/12 A2983 RMK A01 T01430118  RH  085%=      5-min Rain = 0
KME1 100636Z 19009KT 14/12 A2983 RMK A01 T01430118  RH  085%=      5-min Rain = 0
KME1 100637Z 19008KT 14/12 A2983 RMK A01 T01430118  RH  085%=      5-min Rain = 0
KME1 100638Z 19010KT 14/12 A2983 RMK A01 T01430118  RH  085%=      5-min Rain = 0
KME1 100639Z 19010KT 14/12 A2983 RMK A01 T01420118  RH  085%=      5-min Rain = 0
KME1 100640Z 19011KT 14/12 A2983 RMK A01 T01420118  RH  085%=      5-min Rain = 0
KME1 100641Z 19009KT 14/12 A2983 RMK A01 T01420118  RH  085%=      5-min Rain = 0
KME1 100642Z 19008G13KT 14/12 A2983 RMK A01 T01420118  RH  085%=      5-min Rain = 0
KME1 100643Z 19008KT 14/12 A2983 RMK A01 T01420118  RH  085%=      5-min Rain = 0
KME1 100644Z 19009KT 14/12 A2983 RMK A01 T01420118  RH  085%=      5-min Rain = 0
KME1 100645Z 19009KT 14/12 A2983 RMK A01 T01410118  RH  086%=      5-min Rain = 0
KME1 100646Z 19008KT 14/12 A2983 RMK A01 T01410118  RH  086%=      5-min Rain = 0
KME1 100647Z 19009KT 14/12 A2983 RMK A01 T01410118  RH  086%=      5-min Rain = 0
KME1 100648Z 19009KT 14/12 A2983 RMK A01 T01400118  RH  086%=      5-min Rain = 0
KME1 100649Z 19008KT 14/12 A2983 RMK A01 T01410118  RH  086%=      5-min Rain = 0
KME1 100650Z 19009KT 14/12 A2983 RMK A01 T01400118  RH  086%=      5-min Rain = 0
KME1 100651Z 19008KT 14/12 A2983 RMK A01 T01400118  RH  086%=      5-min Rain = 0
KME1 100652Z 19007KT 14/12 A2983 RMK A01 T01400117  RH  086%=      5-min Rain = 0
KME1 100653Z 19008KT 14/12 A2983 RMK A01 T01400118  RH  086%=      5-min Rain = 0
KME1 100654Z 19008KT 14/12 A2983 RMK A01 T01390118  RH  087%=      5-min Rain = 0
KME1 100655Z 19007KT 14/12 A2983 RMK A01 T01390118  RH  087%=      5-min Rain = 0
KME1 100656Z 19008KT 14/12 A2983 RMK A01 T01400118  RH  087%=      5-min Rain = 0
KME1 100657Z 19007KT 14/12 A2983 RMK A01 T01390118  RH  087%=      5-min Rain = 0
KME1 100658Z 19007KT 14/12 A2983 RMK A01 T01390118  RH  087%=      5-min Rain = 0
KME1 100659Z 19007KT 14/12 A2983 RMK A01 T01390118  RH  087%=      5-min Rain = 0
KME1 100700Z 19009KT 14/12 A2983 RMK A01 T01390118  RH  087%=      5-min Rain = 0
KME1 100701Z 19008KT 14/12 A2983 RMK A01 T01390118  RH  087%=      5-min Rain = 0
KME1 100702Z 19006KT 14/12 A2983 RMK A01 T01390118  RH  087%=      5-min Rain = 0
KME1 100703Z 19008KT 14/12 A2983 RMK A01 T01390118  RH  087%=      5-min Rain = 0
KME1 100704Z 19008KT 14/12 A2983 RMK A01 T01390118  RH  087%=      5-min Rain = 0
KME1 100705Z 19006KT 14/12 A2983 RMK A01 T01390118  RH  087%=      5-min Rain = 0
KME1 100706Z 19007KT 14/12 A2983 RMK A01 T01380118  RH  087%=      5-min Rain = 0
KME1 100707Z 20007KT 14/12 A2983 RMK A01 T01380118  RH  088%=      5-min Rain = 0
KME1 100708Z 19008KT 14/12 A2984 RMK A01 T01380118  RH  088%=      5-min Rain = 0
KME1 100709Z 19008KT 14/12 A2984 RMK A01 T01380118  RH  088%=      5-min Rain = 0
KME1 100710Z 19007KT 14/12 A2984 RMK A01 T01380119  RH  088%=      5-min Rain = 0
KME1 100711Z 19007KT 14/12 A2984 RMK A01 T01380119  RH  088%=      5-min Rain = 0
KME1 100712Z 19007KT 14/12 A2984 RMK A01 T01380119  RH  088%=      5-min Rain = 0
KME1 100713Z 19006KT 14/12 A2984 RMK A01 T01380118  RH  088%=      5-min Rain = 0
KME1 100714Z 19008KT 14/12 A2984 RMK A01 T01380119  RH  088%=      5-min Rain = 0
KME1 100715Z 20006KT 14/12 A2984 RMK A01 T01380119  RH  088%=      5-min Rain = 0
KME1 100716Z 19006KT 14/12 A2984 RMK A01 T01380119  RH  088%=      5-min Rain = 0
KME1 100717Z 19006KT 14/12 A2984 RMK A01 T01370118  RH  088%=      5-min Rain = 0
KME1 100718Z 19007KT 14/12 A2984 RMK A01 T01370119  RH  089%=      5-min Rain = 0
KME1 100719Z 19007KT 14/12 A2984 RMK A01 T01370119  RH  089%=      5-min Rain = 0
KME1 100720Z 19006KT 14/12 A2984 RMK A01 T01370120  RH  089%=      5-min Rain = 0
KME1 100721Z 19008KT 14/12 A2984 RMK A01 T01380119  RH  089%=      5-min Rain = 0
KME1 100722Z 19006KT 14/12 A2984 RMK A01 T01380120  RH  089%=      5-min Rain = 0
KME1 100723Z 19009KT 14/12 A2984 RMK A01 T01380120  RH  089%=      5-min Rain = 0
KME1 100724Z 18007KT 14/12 A2984 RMK A01 T01390122  RH  089%=      5-min Rain = 0
KME1 100725Z 18008KT 14/12 A2984 RMK A01 T01400122  RH  089%=      5-min Rain = 0
KME1 100726Z 19011KT 14/12 A2984 RMK A01 T01400123  RH  089%=      5-min Rain = 0
KME1 100727Z 19009KT 14/12 A2984 RMK A01 T01410123  RH  089%=      5-min Rain = 0
KME1 100728Z 19010KT 14/12 A2984 RMK A01 T01420124  RH  089%=      5-min Rain = 0
KME1 100729Z 19007KT 14/13 A2984 RMK A01 T01430125  RH  089%=      5-min Rain = 0
KME1 100730Z 19008KT 14/13 A2984 RMK A01 T01440125  RH  088%=      5-min Rain = 0
KME1 100731Z 20011KT 14/13 A2984 RMK A01 T01440125  RH  088%=      5-min Rain = 0
KME1 100732Z 19008KT 15/13 A2984 RMK A01 T01450126  RH  089%=      5-min Rain = 0
KME1 100733Z 20008KT 15/13 A2984 RMK A01 T01450126  RH  088%=      5-min Rain = 0
KME1 100734Z 19013KT 15/13 A2984 RMK A01 T01460127  RH  088%=      5-min Rain = 0
KME1 100735Z 19012KT 15/13 A2984 RMK A01 T01470128  RH  088%=      5-min Rain = 0
KME1 100736Z 20010KT 15/13 A2984 RMK A01 T01470128  RH  088%=      5-min Rain = 0
KME1 100737Z 20009KT 15/13 A2984 RMK A01 T01480128  RH  088%=      5-min Rain = 0
KME1 100738Z 19009KT 15/13 A2984 RMK A01 T01480128  RH  088%=      5-min Rain = 0
KME1 100739Z 19010KT 15/13 A2984 RMK A01 T01480128  RH  088%=      5-min Rain = 0
KME1 100740Z 20011KT 15/13 A2984 RMK A01 T01480128  RH  088%=      5-min Rain = 0
KME1 100741Z 19011KT 15/13 A2984 RMK A01 T01480128  RH  088%=      5-min Rain = 0
KME1 100742Z 19012KT 15/13 A2984 RMK A01 T01490129  RH  088%=      5-min Rain = 0
KME1 100743Z 20010KT 15/13 A2984 RMK A01 T01490129  RH  088%=      5-min Rain = 0
KME1 100744Z 19010KT 15/13 A2984 RMK A01 T01490129  RH  088%=      5-min Rain = 0
KME1 100745Z 20011KT 15/13 A2984 RMK A01 T01490129  RH  088%=      5-min Rain = 0
KME1 100746Z 20012KT 15/13 A2984 RMK A01 T01490129  RH  088%=      5-min Rain = 0
KME1 100747Z 20011KT 15/13 A2984 RMK A01 T01490129  RH  088%=      5-min Rain = 0
KME1 100748Z 19008KT 15/13 A2984 RMK A01 T01490129  RH  088%=      5-min Rain = 0
KME1 100749Z 20010KT 15/13 A2984 RMK A01 T01500130  RH  088%=      5-min Rain = 0
KME1 100750Z 19008KT 15/13 A2984 RMK A01 T01500130  RH  088%=      5-min Rain = 0
KME1 100751Z 19010KT 15/13 A2984 RMK A01 T01500130  RH  088%=      5-min Rain = 0
KME1 100752Z 20009KT 15/13 A2984 RMK A01 T01500130  RH  088%=      5-min Rain = 0
KME1 100753Z 20012KT 15/13 A2984 RMK A01 T01500130  RH  088%=      5-min Rain = 0
KME1 100754Z 20009KT 15/13 A2984 RMK A01 T01500130  RH  088%=      5-min Rain = 0
KME1 100755Z 19012G17KT 15/13 A2984 RMK A01 T01500130  RH  088%=      5-min Rain = 0
KME1 100756Z 19011KT 15/13 A2984 RMK A01 T01500129  RH  088%=      5-min Rain = 0
KME1 100757Z 19010KT 15/13 A2984 RMK A01 T01500129  RH  087%=      5-min Rain = 0
KME1 100758Z 20009KT 15/13 A2984 RMK A01 T01500129  RH  088%=      5-min Rain = 0
KME1 100759Z 20009KT 15/13 A2984 RMK A01 T01500129  RH  088%=      5-min Rain = 0
KME1 100800Z 19011KT 15/13 A2984 RMK A01 T01500129  RH  088%=      5-min Rain = 0
KME1 100801Z 20015G20KT 15/13 A2983 RMK A01 T01500130  RH  088%=      5-min Rain = 0
KME1 100802Z 19013G19KT 15/13 A2983 RMK A01 T01500130  RH  088%=      5-min Rain = 0
KME1 100803Z 19011KT 15/13 A2983 RMK A01 T01510130  RH  088%=      5-min Rain = 0
KME1 100804Z 18017KT 15/13 A2983 RMK A01 T01510131  RH  088%=      5-min Rain = 0
KME1 100805Z 19014KT 15/13 A2983 RMK A01 T01510131  RH  088%=      5-min Rain = 0
KME1 100806Z 19016KT 15/13 A2983 RMK A01 T01510131  RH  088%=      5-min Rain = 0
KME1 100807Z 18017KT 15/13 A2983 RMK A01 T01520131  RH  088%=      5-min Rain = 0
KME1 100808Z 19012KT 15/13 A2983 RMK A01 T01520132  RH  088%=      5-min Rain = 0
KME1 100809Z 19016G21KT 15/13 A2983 RMK A01 T01520132  RH  088%=      5-min Rain = 0
KME1 100810Z 19015KT 15/13 A2983 RMK A01 T01510131  RH  088%=      5-min Rain = 0
KME1 100811Z 19012KT 15/13 A2983 RMK A01 T01520132  RH  088%=      5-min Rain = 0
KME1 100812Z 19014KT 15/13 A2983 RMK A01 T01520132  RH  088%=      5-min Rain = 0
KME1 100813Z 19015KT 15/13 A2983 RMK A01 T01520132  RH  088%=      5-min Rain = 0
KME1 100814Z 19012KT 15/13 A2983 RMK A01 T01520132  RH  088%=      5-min Rain = 0
KME1 100815Z 19013KT 15/13 A2983 RMK A01 T01520132  RH  088%=      5-min Rain = 0
KME1 100816Z 20012KT 15/13 A2983 RMK A01 T01520132  RH  088%=      5-min Rain = 0
KME1 100817Z 19011KT 15/13 A2983 RMK A01 T01520132  RH  088%=      5-min Rain = 0
KME1 100818Z 20014KT 15/13 A2982 RMK A01 T01520133  RH  088%=      5-min Rain = 0
KME1 100819Z 20013KT 15/13 A2982 RMK A01 T01520132  RH  088%=      5-min Rain = 0
KME1 100820Z 19012KT 15/13 A2982 RMK A01 T01520133  RH  088%=      5-min Rain = 0
KME1 100821Z 20011KT 15/13 A2982 RMK A01 T01520132  RH  088%=      5-min Rain = 0
KME1 100822Z 20012KT 15/13 A2982 RMK A01 T01520133  RH  088%=      5-min Rain = 0
KME1 100823Z 20009KT 15/13 A2982 RMK A01 T01520133  RH  088%=      5-min Rain = 0
KME1 100824Z 20012KT 15/13 A2982 RMK A01 T01520132  RH  088%=      5-min Rain = 0
KME1 100825Z 20012KT 15/13 A2982 RMK A01 T01520132  RH  088%=      5-min Rain = 0
KME1 100826Z 19013G18KT 15/13 A2982 RMK A01 T01520132  RH  088%=      5-min Rain = 0
KME1 100827Z 19012G17KT 15/13 A2982 RMK A01 T01520133  RH  088%=      5-min Rain = 0
KME1 100828Z 19013G18KT 15/13 A2982 RMK A01 T01510132  RH  088%=      5-min Rain = 0
KME1 100829Z 20014KT 15/13 A2982 RMK A01 T01520132  RH  088%=      5-min Rain = 0
KME1 100830Z 20012KT 15/13 A2982 RMK A01 T01520132  RH  088%=      5-min Rain = 0
KME1 100831Z 19016KT 15/13 A2982 RMK A01 T01520132  RH  088%=      5-min Rain = 0
KME1 100832Z 20014G20KT 15/13 A2982 RMK A01 T01520132  RH  088%=      5-min Rain = 0
KME1 100833Z 19014KT 15/13 A2982 RMK A01 T01520132  RH  088%=      5-min Rain = 0
KME1 100834Z 20013G19KT 15/13 A2982 RMK A01 T01520133  RH  088%=      5-min Rain = 0
KME1 100835Z 19013KT 15/13 A2982 RMK A01 T01520133  RH  088%=      5-min Rain = 0
KME1 100836Z 20014KT 15/13 A2982 RMK A01 T01520132  RH  088%=      5-min Rain = 0
KME1 100837Z 19016G21KT 15/13 A2982 RMK A01 T01520132  RH  088%=      5-min Rain = 0
KME1 100838Z 19015G20KT 15/13 A2982 RMK A01 T01520133  RH  088%=      5-min Rain = 0
KME1 100839Z 20013KT 15/13 A2982 RMK A01 T01530133  RH  088%=      5-min Rain = 0
KME1 100840Z 20013KT 15/13 A2982 RMK A01 T01530133  RH  088%=      5-min Rain = 0
KME1 100841Z 20016G21KT 15/13 A2982 RMK A01 T01530133  RH  088%=      5-min Rain = 0
KME1 100842Z 19016KT 15/13 A2982 RMK A01 T01530133  RH  088%=      5-min Rain = 0
KME1 100843Z 19014KT 15/13 A2982 RMK A01 T01530133  RH  088%=      5-min Rain = 0
KME1 100844Z 19013KT 15/13 A2982 RMK A01 T01530132  RH  088%=      5-min Rain = 0
KME1 100845Z 19014KT 15/13 A2982 RMK A01 T01530132  RH  088%=      5-min Rain = 0
KME1 100846Z 19015G20KT 15/13 A2982 RMK A01 T01530132  RH  088%=      5-min Rain = 0
KME1 100847Z 19015KT 15/13 A2982 RMK A01 T01530133  RH  088%=      5-min Rain = 0
KME1 100848Z 19012KT 15/13 A2982 RMK A01 T01530133  RH  087%=      5-min Rain = 0
KME1 100849Z 19013G18KT 15/13 A2982 RMK A01 T01530132  RH  087%=      5-min Rain = 0
KME1 100850Z 19012G17KT 15/13 A2982 RMK A01 T01530132  RH  087%=      5-min Rain = 0
KME1 100851Z 19017G25KT 15/13 A2982 RMK A01 T01540133  RH  087%=      5-min Rain = 0
KME1 100852Z 20017KT 15/13 A2982 RMK A01 T01540133  RH  087%=      5-min Rain = 0
KME1 100853Z 20017KT 15/13 A2982 RMK A01 T01540132  RH  087%=      5-min Rain = 0
KME1 100854Z 20016G21KT 15/13 A2982 RMK A01 T01540132  RH  087%=      5-min Rain = 0
KME1 100855Z 19014KT 15/13 A2982 RMK A01 T01540132  RH  087%=      5-min Rain = 0
KME1 100856Z 19014G20KT 15/13 A2981 RMK A01 T01540133  RH  087%=      5-min Rain = 0
KME1 100857Z 19015KT 15/13 A2981 RMK A01 T01540133  RH  087%=      5-min Rain = 0
KME1 100858Z 19012KT 15/13 A2981 RMK A01 T01540133  RH  087%=      5-min Rain = 0
KME1 100859Z 20011KT 15/13 A2981 RMK A01 T01540133  RH  087%=      5-min Rain = 0
KME1 100900Z 19014G19KT 15/13 A2981 RMK A01 T01540133  RH  087%=      5-min Rain = 0
KME1 100901Z 19015KT 15/13 A2981 RMK A01 T01540132  RH  087%=      5-min Rain = 0
KME1 100902Z 19014KT 16/13 A2981 RMK A01 T01550133  RH  087%=      5-min Rain = 0
KME1 100903Z 19012G20KT 16/13 A2981 RMK A01 T01550133  RH  087%=      5-min Rain = 0
KME1 100904Z 20016KT 16/13 A2981 RMK A01 T01550133  RH  087%=      5-min Rain = 0
KME1 100905Z 20016KT 16/13 A2981 RMK A01 T01550132  RH  086%=      5-min Rain = 0
KME1 100906Z 20014G19KT 16/13 A2981 RMK A01 T01550133  RH  086%=      5-min Rain = 0
KME1 100907Z 20013KT 16/13 A2981 RMK A01 T01550132  RH  086%=      5-min Rain = 0
KME1 100908Z 19011KT 16/13 A2981 RMK A01 T01550132  RH  086%=      5-min Rain = 0
KME1 100909Z 20008KT 16/13 A2982 RMK A01 T01550132  RH  086%=      5-min Rain = 0
KME1 100910Z 19006KT 16/13 A2982 RMK A01 T01550132  RH  086%=      5-min Rain = 0
KME1 100911Z 20008KT 16/13 A2982 RMK A01 T01550132  RH  086%=      5-min Rain = 0
KME1 100912Z 20013G18KT 16/13 A2981 RMK A01 T01550132  RH  087%=      5-min Rain = 0
KME1 100913Z 21012KT 16/13 A2981 RMK A01 T01550132  RH  086%=      5-min Rain = 0
KME1 100914Z 20008KT 16/13 A2982 RMK A01 T01550132  RH  086%=      5-min Rain = 0
KME1 100915Z 19007KT 16/13 A2982 RMK A01 T01550132  RH  086%=      5-min Rain = 0
KME1 100916Z 20007G14KT 16/13 A2982 RMK A01 T01550133  RH  086%=      5-min Rain = 0
KME1 100917Z 20012KT 16/13 A2982 RMK A01 T01550133  RH  086%=      5-min Rain = 0
KME1 100918Z 20009KT 16/13 A2982 RMK A01 T01560133  RH  086%=      5-min Rain = 0
KME1 100919Z 22010KT 16/13 A2982 RMK A01 T01560132  RH  086%=      5-min Rain = 0
KME1 100920Z 21011KT 16/13 A2982 RMK A01 T01560133  RH  086%=      5-min Rain = 0
KME1 100921Z 21009KT 16/13 A2982 RMK A01 T01560132  RH  086%=      5-min Rain = 0
KME1 100922Z 21009KT 16/13 A2982 RMK A01 T01560132  RH  086%=      5-min Rain = 0
KME1 100923Z 22008KT 16/13 A2982 RMK A01 T01560132  RH  086%=      5-min Rain = 0
KME1 100924Z 22008KT 16/13 A2982 RMK A01 T01560132  RH  086%=      5-min Rain = 0
KME1 100925Z 22009KT 16/13 A2982 RMK A01 T01560132  RH  086%=      5-min Rain = 0
KME1 100926Z 21007KT 16/13 A2982 RMK A01 T01560132  RH  086%=      5-min Rain = 0
KME1 100927Z 22008KT 16/13 A2982 RMK A01 T01560132  RH  086%=      5-min Rain = 0
KME1 100928Z 21008KT 16/13 A2982 RMK A01 T01560132  RH  085%=      5-min Rain = 0
KME1 100929Z 21012KT 16/13 A2982 RMK A01 T01560132  RH  085%=      5-min Rain = 0
KME1 100930Z 21013KT 16/13 A2982 RMK A01 T01560132  RH  085%=      5-min Rain = 0
KME1 100931Z 20014KT 16/13 A2981 RMK A01 T01570132  RH  085%=      5-min Rain = 0
KME1 100932Z 21011KT 16/13 A2981 RMK A01 T01570132  RH  085%=      5-min Rain = 0
KME1 100933Z 20010KT 16/13 A2981 RMK A01 T01570132  RH  085%=      5-min Rain = 0
KME1 100934Z 20010KT 16/13 A2981 RMK A01 T01570132  RH  085%=      5-min Rain = 0
KME1 100935Z 20014KT 16/13 A2981 RMK A01 T01570132  RH  085%=      5-min Rain = 0
KME1 100936Z 20011KT 16/13 A2981 RMK A01 T01560132  RH  085%=      5-min Rain = 0
KME1 100937Z 20009KT 16/13 A2981 RMK A01 T01570132  RH  085%=      5-min Rain = 0
KME1 100938Z 20010KT 16/13 A298 RMK A01 T01560132  RH  085%=      5-min Rain = 0
KME1 100939Z 20012G17KT 16/13 A298 RMK A01 T01560131  RH  085%=      5-min Rain = 0
KME1 100940Z 20014KT 16/13 A298 RMK A01 T01560131  RH  085%=      5-min Rain = 0
KME1 100941Z 20013KT 16/13 A298 RMK A01 T01560131  RH  085%=      5-min Rain = 0
KME1 100942Z 20012KT 16/13 A298 RMK A01 T01550131  RH  085%=      5-min Rain = 0
KME1 100943Z 20015KT 16/13 A298 RMK A01 T01550131  RH  086%=      5-min Rain = 0
KME1 100944Z 20015KT 16/13 A298 RMK A01 T01550131  RH  086%=      5-min Rain = 0
KME1 100945Z 20015KT 16/13 A298 RMK A01 T01550131  RH  086%=      5-min Rain = 0
KME1 100946Z 20016KT 16/13 A298 RMK A01 T01550131  RH  086%=      5-min Rain = 0
KME1 100947Z 20013KT 16/13 A298 RMK A01 T01550131  RH  085%=      5-min Rain = 0
KME1 100948Z 20011KT 16/13 A298 RMK A01 T01550130  RH  085%=      5-min Rain = 0
KME1 100949Z 20013G20KT 16/13 A298 RMK A01 T01550131  RH  086%=      5-min Rain = 0
KME1 100950Z 20017KT 15/13 A298 RMK A01 T01540130  RH  086%=      5-min Rain = 0
KME1 100951Z 21015KT 15/13 A298 RMK A01 T01540131  RH  086%=      5-min Rain = 0
KME1 100952Z 20015KT 16/13 A298 RMK A01 T01550131  RH  086%=      5-min Rain = 0
KME1 100953Z 20014G19KT 16/13 A298 RMK A01 T01550131  RH  085%=      5-min Rain = 0
KME1 100954Z 20013KT 16/13 A298 RMK A01 T01550131  RH  085%=      5-min Rain = 0
KME1 100955Z 20012KT 16/13 A298 RMK A01 T01550130  RH  085%=      5-min Rain = 0
KME1 100956Z 20011G17KT 16/13 A298 RMK A01 T01550131  RH  085%=      5-min Rain = 0
KME1 100957Z 21013KT 16/13 A298 RMK A01 T01550131  RH  085%=      5-min Rain = 0
KME1 100958Z 20014G19KT 16/13 A298 RMK A01 T01550131  RH  086%=      5-min Rain = 0
KME1 100959Z 19014KT 16/13 A298 RMK A01 T01550131  RH  086%=      5-min Rain = 0
KME1 101000Z 19013KT 16/13 A298 RMK A01 T01550131  RH  085%=      5-min Rain = 0
KME1 101001Z 20012KT 16/13 A298 RMK A01 T01550130  RH  085%=      5-min Rain = 0
KME1 101002Z 19016KT 16/13 A298 RMK A01 T01550130  RH  085%=      5-min Rain = 0
KME1 101003Z 20013KT 16/13 A298 RMK A01 T01550130  RH  085%=      5-min Rain = 0
KME1 101004Z 20016G21KT 16/13 A298 RMK A01 T01550130  RH  085%=      5-min Rain = 0
KME1 101005Z 20012KT 16/13 A298 RMK A01 T01550130  RH  085%=      5-min Rain = 0
KME1 101006Z 19010KT 16/13 A298 RMK A01 T01550130  RH  085%=      5-min Rain = 0
KME1 101007Z 20010KT 16/13 A298 RMK A01 T01550130  RH  085%=      5-min Rain = 0
KME1 101008Z 20010G16KT 15/13 A298 RMK A01 T01540130  RH  085%=      5-min Rain = 0
KME1 101009Z 19012G17KT 15/13 A298 RMK A01 T01540130  RH  086%=      5-min Rain = 0
KME1 101010Z 19010KT 15/13 A298 RMK A01 T01540130  RH  086%=      5-min Rain = 0
KME1 101011Z 20009KT 15/13 A298 RMK A01 T01540130  RH  086%=      5-min Rain = 0
KME1 101012Z 19014KT 15/13 A298 RMK A01 T01530130  RH  086%=      5-min Rain = 0
KME1 101013Z 20014G20KT 15/13 A298 RMK A01 T01530130  RH  086%=      5-min Rain = 0
KME1 101014Z 20015KT 15/13 A298 RMK A01 T01530130  RH  086%=      5-min Rain = 0
KME1 101015Z 20012KT 15/13 A298 RMK A01 T01540130  RH  086%=      5-min Rain = 0
KME1 101016Z 20014KT 15/13 A298 RMK A01 T01540130  RH  085%=      5-min Rain = 0
KME1 101017Z 19010KT 15/13 A298 RMK A01 T01540130  RH  085%=      5-min Rain = 0
KME1 101018Z 19011KT 15/13 A298 RMK A01 T01540130  RH  085%=      5-min Rain = 0
KME1 101019Z 21011KT 15/13 A298 RMK A01 T01530130  RH  086%=      5-min Rain = 0
KME1 101020Z 20011G18KT 15/13 A298 RMK A01 T01530130  RH  086%=      5-min Rain = 0
KME1 101021Z 20015G20KT 15/13 A298 RMK A01 T01530130  RH  086%=      5-min Rain = 0
KME1 101022Z 20014KT 15/13 A298 RMK A01 T01530130  RH  086%=      5-min Rain = 0
KME1 101023Z 20013G20KT 15/13 A298 RMK A01 T01540130  RH  086%=      5-min Rain = 0
KME1 101024Z 20015KT 15/13 A298 RMK A01 T01540130  RH  086%=      5-min Rain = 0
KME1 101025Z 20012KT 15/13 A298 RMK A01 T01540130  RH  085%=      5-min Rain = 0
KME1 101026Z 20008KT 15/13 A298 RMK A01 T01540130  RH  085%=      5-min Rain = 0
KME1 101027Z 20012KT 15/13 A298 RMK A01 T01530129  RH  086%=      5-min Rain = 0
KME1 101028Z 21013KT 15/13 A298 RMK A01 T01530129  RH  086%=      5-min Rain = 0
KME1 101029Z 20014KT 15/13 A298 RMK A01 T01530129  RH  086%=      5-min Rain = 0
KME1 101030Z 20014KT 15/13 A298 RMK A01 T01530129  RH  086%=      5-min Rain = 0
KME1 101031Z 20012KT 15/13 A2981 RMK A01 T01530129  RH  086%=      5-min Rain = 0
KME1 101032Z 21012KT 15/13 A2981 RMK A01 T01530128  RH  085%=      5-min Rain = 0
KME1 101033Z 21014KT 15/13 A2981 RMK A01 T01530129  RH  086%=      5-min Rain = 0
KME1 101034Z 20012KT 15/13 A2981 RMK A01 T01530129  RH  086%=      5-min Rain = 0
KME1 101035Z 20012KT 15/13 A2981 RMK A01 T01530129  RH  086%=      5-min Rain = 0
KME1 101036Z 21013KT 15/13 A2981 RMK A01 T01530129  RH  086%=      5-min Rain = 0
KME1 101037Z 20013KT 15/13 A2981 RMK A01 T01530129  RH  086%=      5-min Rain = 0
KME1 101038Z 20010KT 15/13 A2981 RMK A01 T01530129  RH  085%=      5-min Rain = 0
KME1 101039Z 20012KT 15/13 A2981 RMK A01 T01530129  RH  086%=      5-min Rain = 0
KME1 101040Z 20012KT 15/13 A2982 RMK A01 T01530129  RH  086%=      5-min Rain = 0
KME1 101041Z 21011KT 15/13 A2982 RMK A01 T01530129  RH  085%=      5-min Rain = 0
KME1 101042Z 20013KT 15/13 A2982 RMK A01 T01530129  RH  085%=      5-min Rain = 0
KME1 101043Z 20011KT 15/13 A2982 RMK A01 T01530129  RH  086%=      5-min Rain = 0
KME1 101044Z 20013KT 15/13 A2982 RMK A01 T01530129  RH  086%=      5-min Rain = 0
KME1 101045Z 21009KT 15/13 A2982 RMK A01 T01530129  RH  085%=      5-min Rain = 0
KME1 101046Z 21010KT 15/13 A2982 RMK A01 T01530129  RH  085%=      5-min Rain = 0
KME1 101047Z 20009KT 15/13 A2982 RMK A01 T01530129  RH  086%=      5-min Rain = 0
KME1 101048Z 21009KT 15/13 A2982 RMK A01 T01520129  RH  086%=      5-min Rain = 0
KME1 101049Z 21012KT 15/13 A2982 RMK A01 T01520129  RH  086%=      5-min Rain = 0
KME1 101050Z 21010KT 15/13 A2983 RMK A01 T01530129  RH  086%=      5-min Rain = 0
KME1 101051Z 21011KT 15/13 A2983 RMK A01 T01530129  RH  086%=      5-min Rain = 0
KME1 101052Z 22014KT 15/13 A2982 RMK A01 T01530129  RH  086%=      5-min Rain = 0
KME1 101053Z 21013KT 15/13 A2982 RMK A01 T01530129  RH  086%=      5-min Rain = 0
KME1 101054Z 21009KT 15/13 A2982 RMK A01 T01540129  RH  085%=      5-min Rain = 0
KME1 101055Z 21009KT 15/13 A2982 RMK A01 T01540129  RH  085%=      5-min Rain = 0
KME1 101056Z 21009KT 15/13 A2982 RMK A01 T01540129  RH  085%=      5-min Rain = 0
KME1 101057Z 21009G17KT 15/13 A2983 RMK A01 T01530128  RH  085%=      5-min Rain = 0
KME1 101058Z 20012KT 15/13 A2982 RMK A01 T01520129  RH  086%=      5-min Rain = 0
KME1 101059Z 21011KT 15/13 A2982 RMK A01 T01530129  RH  086%=      5-min Rain = 0
KME1 101100Z 21010KT 15/13 A2982 RMK A01 T01520129  RH  086%=      5-min Rain = 0
KME1 101101Z 20010KT 15/13 A2982 RMK A01 T01520129  RH  086%=      5-min Rain = 0
KME1 101102Z 20012KT 15/13 A2982 RMK A01 T01520129  RH  086%=      5-min Rain = 0
KME1 101103Z 20011KT 15/13 A2982 RMK A01 T01520129  RH  086%=      5-min Rain = 0
KME1 101104Z 20011KT 15/13 A2982 RMK A01 T01520128  RH  086%=      5-min Rain = 0
KME1 101105Z 20011KT 15/13 A2982 RMK A01 T01520128  RH  086%=      5-min Rain = 0
KME1 101106Z 20012KT 15/13 A2982 RMK A01 T01510128  RH  086%=      5-min Rain = 0
KME1 101107Z 21012KT 15/13 A2982 RMK A01 T01510128  RH  086%=      5-min Rain = 0
KME1 101108Z 21011KT 15/13 A2982 RMK A01 T01510128  RH  086%=      5-min Rain = 0
KME1 101109Z 20010G15KT 15/13 A2982 RMK A01 T01510128  RH  086%=      5-min Rain = 0
KME1 101110Z 20012KT 15/13 A2982 RMK A01 T01510128  RH  086%=      5-min Rain = 0
KME1 101111Z 20012KT 15/13 A2982 RMK A01 T01510128  RH  086%=      5-min Rain = 0
KME1 101112Z 20012KT 15/13 A2982 RMK A01 T01510129  RH  086%=      5-min Rain = 0
KME1 101113Z 21012KT 15/13 A2982 RMK A01 T01510129  RH  086%=      5-min Rain = 0
KME1 101114Z 20012KT 15/13 A2982 RMK A01 T01510128  RH  086%=      5-min Rain = 0
KME1 101115Z 21010KT 15/13 A2982 RMK A01 T01510128  RH  086%=      5-min Rain = 0
KME1 101116Z 21013KT 15/13 A2982 RMK A01 T01510128  RH  086%=      5-min Rain = 0
KME1 101117Z 21011KT 15/13 A2982 RMK A01 T01510128  RH  086%=      5-min Rain = 0
KME1 101118Z 20010KT 15/13 A2982 RMK A01 T01510128  RH  086%=      5-min Rain = 0
KME1 101119Z 21011KT 15/13 A2982 RMK A01 T01510128  RH  086%=      5-min Rain = 0
KME1 101120Z 20011KT 15/13 A2982 RMK A01 T01510128  RH  086%=      5-min Rain = 0
KME1 101121Z 21009KT 15/13 A2982 RMK A01 T01510128  RH  086%=      5-min Rain = 0
KME1 101122Z 21011KT 15/13 A2982 RMK A01 T01500128  RH  086%=      5-min Rain = 0
KME1 101123Z 20012KT 15/13 A2982 RMK A01 T01500128  RH  087%=      5-min Rain = 0
KME1 101124Z 21010KT 15/13 A2982 RMK A01 T01500128  RH  087%=      5-min Rain = 0
KME1 101125Z 21012KT 15/13 A2983 RMK A01 T01500128  RH  086%=      5-min Rain = 0
KME1 101126Z 21010G15KT 15/13 A2983 RMK A01 T01500128  RH  086%=      5-min Rain = 0
KME1 101127Z 21010KT 15/13 A2983 RMK A01 T01500128  RH  087%=      5-min Rain = 0
KME1 101128Z 21010KT 15/13 A2983 RMK A01 T01500128  RH  087%=      5-min Rain = 0
KME1 101129Z 21011KT 15/13 A2983 RMK A01 T01500128  RH  087%=      5-min Rain = 0
KME1 101130Z 21010KT 15/13 A2983 RMK A01 T01500128  RH  087%=      5-min Rain = 0
KME1 101131Z 21011KT 15/13 A2983 RMK A01 T01490128  RH  087%=      5-min Rain = 0
KME1 101132Z 21010KT 15/13 A2983 RMK A01 T01490128  RH  087%=      5-min Rain = 0
KME1 101133Z 21011KT 15/13 A2983 RMK A01 T01490128  RH  087%=      5-min Rain = 0
KME1 101134Z 21009KT 15/13 A2983 RMK A01 T01490128  RH  087%=      5-min Rain = 0
KME1 101135Z 21010KT 15/13 A2983 RMK A01 T01490128  RH  087%=      5-min Rain = 0
KME1 101136Z 21010KT 15/13 A2983 RMK A01 T01490128  RH  087%=      5-min Rain = 0
KME1 101137Z 21010KT 15/13 A2983 RMK A01 T01490128  RH  087%=      5-min Rain = 0
KME1 101138Z 21009KT 15/13 A2983 RMK A01 T01490128  RH  087%=      5-min Rain = 0
KME1 101139Z 21011KT 15/13 A2983 RMK A01 T01490128  RH  087%=      5-min Rain = 0
KME1 101140Z 21011KT 15/13 A2983 RMK A01 T01490128  RH  087%=      5-min Rain = 0
KME1 101141Z 21011KT 15/13 A2983 RMK A01 T01490128  RH  087%=      5-min Rain = 0
KME1 101142Z 20009KT 15/13 A2983 RMK A01 T01490128  RH  087%=      5-min Rain = 0
KME1 101143Z 20009KT 15/13 A2983 RMK A01 T01490127  RH  087%=      5-min Rain = 0
KME1 101144Z 20008KT 15/13 A2983 RMK A01 T01490128  RH  087%=      5-min Rain = 0
KME1 101145Z 20010KT 15/13 A2983 RMK A01 T01480128  RH  087%=      5-min Rain = 0
KME1 101146Z 20009KT 15/13 A2983 RMK A01 T01480128  RH  088%=      5-min Rain = 0
KME1 101147Z 21009KT 15/13 A2983 RMK A01 T01480127  RH  088%=      5-min Rain = 0
KME1 101148Z 19010KT 15/13 A2983 RMK A01 T01480128  RH  088%=      5-min Rain = 0
KME1 101149Z 20010KT 15/13 A2983 RMK A01 T01480128  RH  088%=      5-min Rain = 0
KME1 101150Z 20009KT 15/13 A2983 RMK A01 T01480128  RH  088%=      5-min Rain = 0
KME1 101151Z 20009KT 15/13 A2983 RMK A01 T01480128  RH  088%=      5-min Rain = 0
KME1 101152Z 20010KT 15/13 A2983 RMK A01 T01480128  RH  088%=      5-min Rain = 0
KME1 101153Z 20008KT 15/13 A2983 RMK A01 T01470128  RH  088%=      5-min Rain = 0
KME1 101154Z 20009KT 15/13 A2983 RMK A01 T01470127  RH  088%=      5-min Rain = 0
KME1 101155Z 20008KT 15/13 A2984 RMK A01 T01470128  RH  088%=      5-min Rain = 0
KME1 101156Z 20007KT 15/13 A2984 RMK A01 T01470128  RH  088%=      5-min Rain = 0
KME1 101157Z 20008KT 15/13 A2984 RMK A01 T01470127  RH  088%=      5-min Rain = 0
KME1 101158Z 20007KT 15/13 A2984 RMK A01 T01470127  RH  088%=      5-min Rain = 0
KME1 101159Z 20009G15KT 15/13 A2984 RMK A01 T01460127  RH  088%=      5-min Rain = 0
KME1 101200Z 20011KT 15/13 A2984 RMK A01 T01460127  RH  089%=      5-min Rain = 0
KME1 101201Z 20009KT 15/13 A2984 RMK A01 T01470128  RH  088%=      5-min Rain = 0
KME1 101202Z 20010KT 15/13 A2984 RMK A01 T01470128  RH  088%=      5-min Rain = 0
KME1 101203Z 20010KT 15/13 A2984 RMK A01 T01470128  RH  088%=      5-min Rain = 0
KME1 101204Z 20007KT 15/13 A2984 RMK A01 T01470128  RH  088%=      5-min Rain = 0
KME1 101205Z 20006KT 15/13 A2984 RMK A01 T01470127  RH  088%=      5-min Rain = 0
KME1 101206Z 20009KT 15/13 A2984 RMK A01 T01460127  RH  088%=      5-min Rain = 0
KME1 101207Z 20009KT 15/13 A2985 RMK A01 T01460127  RH  089%=      5-min Rain = 0
KME1 101208Z 20009KT 15/13 A2985 RMK A01 T01460128  RH  089%=      5-min Rain = 0
KME1 101209Z 20008KT 15/13 A2985 RMK A01 T01460127  RH  088%=      5-min Rain = 0
KME1 101210Z 20006KT 15/13 A2985 RMK A01 T01460127  RH  088%=      5-min Rain = 0
KME1 101211Z 20007KT 15/13 A2985 RMK A01 T01460127  RH  088%=      5-min Rain = 0
KME1 101212Z 20007KT 15/13 A2985 RMK A01 T01460127  RH  089%=      5-min Rain = 0
KME1 101213Z 20007KT 15/13 A2985 RMK A01 T01460128  RH  089%=      5-min Rain = 0
KME1 101214Z 20008KT 15/13 A2985 RMK A01 T01460128  RH  089%=      5-min Rain = 0
KME1 101215Z 20006KT 15/13 A2985 RMK A01 T01460128  RH  089%=      5-min Rain = 0
KME1 101216Z 20006KT 15/13 A2985 RMK A01 T01460127  RH  089%=      5-min Rain = 0
KME1 101217Z 20008KT 15/13 A2985 RMK A01 T01460127  RH  089%=      5-min Rain = 0
KME1 101218Z 19006KT 15/13 A2985 RMK A01 T01460127  RH  089%=      5-min Rain = 0
KME1 101219Z 21007KT 15/13 A2985 RMK A01 T01460127  RH  088%=      5-min Rain = 0
KME1 101220Z 19007KT 15/13 A2985 RMK A01 T01450127  RH  089%=      5-min Rain = 0
KME1 101221Z 20010KT 15/13 A2985 RMK A01 T01450128  RH  089%=      5-min Rain = 0
KME1 101222Z 20006KT 15/13 A2985 RMK A01 T01460128  RH  089%=      5-min Rain = 0
KME1 101223Z 21007KT 15/13 A2986 RMK A01 T01460127  RH  089%=      5-min Rain = 0
KME1 101224Z 20009KT 15/13 A2985 RMK A01 T01450127  RH  089%=      5-min Rain = 0
KME1 101225Z 20009KT 15/13 A2986 RMK A01 T01450127  RH  089%=      5-min Rain = 0
KME1 101226Z 20009KT 15/13 A2986 RMK A01 T01450127  RH  089%=      5-min Rain = 0
KME1 101227Z 20011KT 15/13 A2986 RMK A01 T01460128  RH  089%=      5-min Rain = 0
KME1 101228Z 20008KT 15/13 A2986 RMK A01 T01450127  RH  089%=      5-min Rain = 0
KME1 101229Z 20008KT 15/13 A2986 RMK A01 T01460127  RH  089%=      5-min Rain = 0
KME1 101230Z 20009KT 15/13 A2986 RMK A01 T01460128  RH  089%=      5-min Rain = 0
KME1 101231Z 19009KT 15/13 A2986 RMK A01 T01460128  RH  089%=      5-min Rain = 0
KME1 101232Z 20010KT 15/13 A2986 RMK A01 T01460128  RH  089%=      5-min Rain = 0
KME1 101233Z 19008KT 15/13 A2986 RMK A01 T01460128  RH  089%=      5-min Rain = 0
KME1 101234Z 20008KT 15/13 A2986 RMK A01 T01460127  RH  089%=      5-min Rain = 0
KME1 101235Z 20008KT 15/13 A2986 RMK A01 T01450127  RH  089%=      5-min Rain = 0
KME1 101236Z 20009KT 15/13 A2986 RMK A01 T01450127  RH  089%=      5-min Rain = 0
KME1 101237Z 19009KT 15/13 A2986 RMK A01 T01450127  RH  089%=      5-min Rain = 0
KME1 101238Z 20009KT 15/13 A2985 RMK A01 T01450127  RH  089%=      5-min Rain = 0
KME1 101239Z 19010KT 15/13 A2985 RMK A01 T01450128  RH  089%=      5-min Rain = 0
KME1 101240Z 19010KT 15/13 A2985 RMK A01 T01450127  RH  089%=      5-min Rain = 0
KME1 101241Z 19009KT 15/13 A2985 RMK A01 T01450128  RH  089%=      5-min Rain = 0
KME1 101242Z 19011G16KT 15/13 A2985 RMK A01 T01450127  RH  089%=      5-min Rain = 0
KME1 101243Z 19011KT 15/13 A2985 RMK A01 T01450127  RH  089%=      5-min Rain = 0
KME1 101244Z 19012KT 15/13 A2985 RMK A01 T01450128  RH  089%=      5-min Rain = 0
KME1 101245Z 19008KT 15/13 A2985 RMK A01 T01450127  RH  089%=      5-min Rain = 0
KME1 101246Z 19009KT 15/13 A2985 RMK A01 T01450127  RH  089%=      5-min Rain = 0
KME1 101247Z 19011KT 14/13 A2985 RMK A01 T01440127  RH  089%=      5-min Rain = 0
KME1 101248Z 19011KT 14/13 A2985 RMK A01 T01440127  RH  090%=      5-min Rain = 0
KME1 101249Z 19010KT 14/13 A2985 RMK A01 T01440127  RH  090%=      5-min Rain = 0
KME1 101250Z 19013KT 14/13 A2985 RMK A01 T01440127  RH  090%=      5-min Rain = 0
KME1 101251Z 19010KT 15/13 A2985 RMK A01 T01450128  RH  089%=      5-min Rain = 0
KME1 101252Z 19009KT 15/13 A2985 RMK A01 T01450127  RH  089%=      5-min Rain = 0
KME1 101253Z 19008KT 14/13 A2985 RMK A01 T01440127  RH  089%=      5-min Rain = 0
KME1 101254Z 19010KT 14/13 A2985 RMK A01 T01430126  RH  089%=      5-min Rain = 0
KME1 101255Z 19011KT 14/13 A2985 RMK A01 T01430126  RH  090%=      5-min Rain = 0
KME1 101256Z 20007KT 14/13 A2985 RMK A01 T01430127  RH  090%=      5-min Rain = 0
KME1 101257Z 19008KT 14/13 A2985 RMK A01 T01430126  RH  090%=      5-min Rain = 0
KME1 101258Z 19008KT 14/13 A2985 RMK A01 T01420126  RH  090%=      5-min Rain = 0
KME1 101259Z 18008KT 14/13 A2985 RMK A01 T01420126  RH  090%=      5-min Rain = 0
KME1 101300Z 19008KT 14/13 A2985 RMK A01 T01420126  RH  090%=      5-min Rain = 0
KME1 101301Z 18008KT 14/13 A2985 RMK A01 T01420126  RH  090%=      5-min Rain = 0
KME1 101302Z 20012KT 14/13 A2985 RMK A01 T01420126  RH  090%=      5-min Rain = 0
KME1 101303Z 24008KT 14/13 A2985 RMK A01 T01420126  RH  091%=      5-min Rain = 0
KME1 101304Z 28007KT 14/13 A2986 RMK A01 T01420126  RH  090%=      5-min Rain = 0
KME1 101305Z 29006KT 14/13 A2986 RMK A01 T01420126  RH  090%=      5-min Rain = 0
KME1 101306Z 28006KT 14/13 A2986 RMK A01 T01410125  RH  090%=      5-min Rain = 0
KME1 101307Z 26006KT 14/13 A2986 RMK A01 T01410126  RH  091%=      5-min Rain = 0
KME1 101308Z 24005KT 14/13 A2986 RMK A01 T01410126  RH  091%=      5-min Rain = 0
KME1 101309Z 22004KT 14/13 A2986 RMK A01 T01410126  RH  091%=      5-min Rain = 0
KME1 101310Z 21004KT 14/13 A2986 RMK A01 T01410126  RH  091%=      5-min Rain = 0
KME1 101311Z 20005KT 14/13 A2986 RMK A01 T01410125  RH  090%=      5-min Rain = 0
KME1 101312Z 22005KT 14/13 A2986 RMK A01 T01400125  RH  090%=      5-min Rain = 0
KME1 101313Z 20005KT 14/13 A2986 RMK A01 T01400125  RH  091%=      5-min Rain = 0
KME1 101314Z 22003KT 14/13 A2986 RMK A01 T01400125  RH  091%=      5-min Rain = 0
KME1 101315Z 21003KT 14/13 A2986 RMK A01 T01400125  RH  091%=      5-min Rain = 0
KME1 101316Z 22003KT 14/13 A2986 RMK A01 T01400125  RH  091%=      5-min Rain = 0
KME1 101317Z 22002KT 14/13 A2986 RMK A01 T01400125  RH  091%=      5-min Rain = 0
KME1 101318Z 23002KT 14/13 A2986 RMK A01 T01400125  RH  091%=      5-min Rain = 0
KME1 101319Z 20005KT 14/13 A2986 RMK A01 T01390125  RH  091%=      5-min Rain = 0
KME1 101320Z 20003KT 14/13 A2986 RMK A01 T01390125  RH  091%=      5-min Rain = 0
KME1 101321Z 21003KT 14/13 A2986 RMK A01 T01390125  RH  091%=      5-min Rain = 0
KME1 101322Z 21005KT 14/13 A2986 RMK A01 T01390125  RH  091%=      5-min Rain = 0
KME1 101323Z 20005KT 14/13 A2986 RMK A01 T01390125  RH  091%=      5-min Rain = 0
KME1 101324Z 20004KT 14/13 A2986 RMK A01 T01390125  RH  091%=      5-min Rain = 0
KME1 101325Z 20007KT 14/13 A2985 RMK A01 T01390125  RH  091%=      5-min Rain = 0
KME1 101326Z 19005KT 14/13 A2985 RMK A01 T01390126  RH  091%=      5-min Rain = 0
KME1 101327Z 19004KT 14/13 A2985 RMK A01 T01400126  RH  091%=      5-min Rain = 0
KME1 101328Z 19008KT 14/13 A2985 RMK A01 T01400126  RH  091%=      5-min Rain = 0
KME1 101329Z 18006KT 14/13 A2985 RMK A01 T01410126  RH  091%=      5-min Rain = 0
KME1 101330Z 19006KT 14/13 A2985 RMK A01 T01410126  RH  091%=      5-min Rain = 0
KME1 101331Z 19007KT 14/13 A2985 RMK A01 T01410126  RH  091%=      5-min Rain = 0
KME1 101332Z 19008KT 14/13 A2985 RMK A01 T01410127  RH  091%=      5-min Rain = 0
KME1 101333Z 19007KT 14/13 A2985 RMK A01 T01420127  RH  090%=      5-min Rain = 0
KME1 101334Z 19009KT 14/13 A2985 RMK A01 T01430127  RH  090%=      5-min Rain = 0
KME1 101335Z 19008KT 14/13 A2985 RMK A01 T01430127  RH  090%=      5-min Rain = 0
KME1 101336Z 20009KT 14/13 A2985 RMK A01 T01440128  RH  090%=      5-min Rain = 0
KME1 101337Z 20011KT 15/13 A2985 RMK A01 T01450128  RH  090%=      5-min Rain = 0
KME1 101338Z 19009KT 15/13 A2985 RMK A01 T01450128  RH  089%=      5-min Rain = 0
KME1 101339Z 20012KT 15/13 A2985 RMK A01 T01460128  RH  089%=      5-min Rain = 0
KME1 101340Z 19008KT 15/13 A2985 RMK A01 T01470128  RH  089%=      5-min Rain = 0
KME1 101341Z 19010KT 15/13 A2985 RMK A01 T01470128  RH  088%=      5-min Rain = 0
KME1 101342Z 20012KT 15/13 A2984 RMK A01 T01470128  RH  088%=      5-min Rain = 0
KME1 101343Z 19009KT 15/13 A2984 RMK A01 T01480129  RH  088%=      5-min Rain = 0
KME1 101344Z 19010KT 15/13 A2984 RMK A01 T01490129  RH  088%=      5-min Rain = 0
KME1 101345Z 19009KT 15/13 A2984 RMK A01 T01500129  RH  087%=      5-min Rain = 0
KME1 101346Z 19010KT 15/13 A2985 RMK A01 T01510129  RH  087%=      5-min Rain = 0
KME1 101347Z 20009KT 15/13 A2985 RMK A01 T01510129  RH  087%=      5-min Rain = 0
KME1 101348Z 19009KT 15/13 A2985 RMK A01 T01510130  RH  087%=      5-min Rain = 0
KME1 101349Z 20006G11KT 15/13 A2985 RMK A01 T01510129  RH  087%=      5-min Rain = 0
KME1 101350Z 20011G16KT 15/13 A2984 RMK A01 T01510129  RH  087%=      5-min Rain = 0
KME1 101351Z 19009KT 15/13 A2984 RMK A01 T01510129  RH  087%=      5-min Rain = 0
KME1 101352Z 20009KT 15/13 A2984 RMK A01 T01510129  RH  087%=      5-min Rain = 0
KME1 101353Z 21009KT 15/13 A2985 RMK A01 T01510129  RH  087%=      5-min Rain = 0
KME1 101354Z 19008KT 15/13 A2985 RMK A01 T01510129  RH  087%=      5-min Rain = 0
KME1 101355Z 19008KT 15/13 A2985 RMK A01 T01510129  RH  087%=      5-min Rain = 0
KME1 101356Z 20009G15KT 15/13 A2985 RMK A01 T01510129  RH  087%=      5-min Rain = 0
KME1 101357Z 21010KT 15/13 A2985 RMK A01 T01500128  RH  087%=      5-min Rain = 0
KME1 101358Z 20009KT 15/13 A2985 RMK A01 T01500129  RH  087%=      5-min Rain = 0
KME1 101359Z 20007KT 15/13 A2985 RMK A01 T01510129  RH  087%=      5-min Rain = 0
KME1 101400Z 20009KT 15/13 A2985 RMK A01 T01510129  RH  087%=      5-min Rain = 0
KME1 101401Z 19011G16KT 15/13 A2985 RMK A01 T01510129  RH  087%=      5-min Rain = 0
KME1 101402Z 20009KT 15/13 A2985 RMK A01 T01510129  RH  086%=      5-min Rain = 0
KME1 101403Z 19007KT 15/13 A2985 RMK A01 T01520129  RH  086%=      5-min Rain = 0
KME1 101404Z 20008KT 15/13 A2985 RMK A01 T01520129  RH  086%=      5-min Rain = 0
KME1 101405Z 20009KT 15/13 A2985 RMK A01 T01520129  RH  086%=      5-min Rain = 0
KME1 101406Z 20007KT 15/13 A2985 RMK A01 T01520129  RH  086%=      5-min Rain = 0
KME1 101407Z 19009KT 15/13 A2985 RMK A01 T01520129  RH  086%=      5-min Rain = 0
KME1 101408Z 20009KT 15/13 A2985 RMK A01 T01530129  RH  086%=      5-min Rain = 0
KME1 101409Z 19012KT 15/13 A2985 RMK A01 T01530128  RH  085%=      5-min Rain = 0
KME1 101410Z 20008KT 15/13 A2985 RMK A01 T01530128  RH  085%=      5-min Rain = 0
KME1 101411Z 20007KT 15/13 A2985 RMK A01 T01530128  RH  085%=      5-min Rain = 0
KME1 101412Z 19006KT 15/13 A2985 RMK A01 T01530128  RH  085%=      5-min Rain = 0
KME1 101413Z 19007KT 15/13 A2985 RMK A01 T01540129  RH  085%=      5-min Rain = 0
KME1 101414Z 20009KT 15/13 A2985 RMK A01 T01540129  RH  085%=      5-min Rain = 0
KME1 101415Z 20010KT 16/13 A2985 RMK A01 T01550129  RH  085%=      5-min Rain = 0
KME1 101416Z 20009KT 16/13 A2985 RMK A01 T01550129  RH  084%=      5-min Rain = 0
KME1 101417Z 19007KT 16/13 A2985 RMK A01 T01550129  RH  084%=      5-min Rain = 0
KME1 101418Z 20010KT 16/13 A2985 RMK A01 T01550129  RH  084%=      5-min Rain = 0
KME1 101419Z 20008KT 16/13 A2985 RMK A01 T01550128  RH  084%=      5-min Rain = 0
KME1 101420Z 20011KT 16/13 A2985 RMK A01 T01560129  RH  084%=      5-min Rain = 0
KME1 101421Z 20006KT 16/13 A2985 RMK A01 T01560128  RH  084%=      5-min Rain = 0
KME1 101422Z 19009KT 16/13 A2985 RMK A01 T01560130  RH  084%=      5-min Rain = 0
KME1 101423Z 19009KT 16/13 A2985 RMK A01 T01570129  RH  084%=      5-min Rain = 0
KME1 101424Z 19007KT 16/13 A2985 RMK A01 T01570129  RH  084%=      5-min Rain = 0
KME1 101425Z 20010KT 16/13 A2985 RMK A01 T01570129  RH  083%=      5-min Rain = 0
KME1 101426Z 20010KT 16/13 A2985 RMK A01 T01580130  RH  083%=      5-min Rain = 0
KME1 101427Z 20015KT 16/13 A2985 RMK A01 T01580129  RH  083%=      5-min Rain = 0
KME1 101428Z 20013KT 16/13 A2985 RMK A01 T01580129  RH  083%=      5-min Rain = 0
KME1 101429Z 20009KT 16/13 A2985 RMK A01 T01580129  RH  083%=      5-min Rain = 0
KME1 101430Z 20011KT 16/13 A2985 RMK A01 T01580129  RH  083%=      5-min Rain = 0
KME1 101431Z 20010KT 16/13 A2985 RMK A01 T01580129  RH  083%=      5-min Rain = 0
KME1 101432Z 20011KT 16/13 A2985 RMK A01 T01590129  RH  083%=      5-min Rain = 0
KME1 101433Z 20008KT 16/13 A2985 RMK A01 T01580129  RH  083%=      5-min Rain = 0
KME1 101434Z 19012KT 16/13 A2985 RMK A01 T01580129  RH  083%=      5-min Rain = 0
KME1 101435Z 20012KT 16/13 A2985 RMK A01 T01590129  RH  083%=      5-min Rain = 0
KME1 101436Z 20014KT 16/13 A2985 RMK A01 T01590129  RH  082%=      5-min Rain = 0
KME1 101437Z 20013KT 16/13 A2986 RMK A01 T01580128  RH  082%=      5-min Rain = 0
KME1 101438Z 20012KT 16/13 A2986 RMK A01 T01580129  RH  083%=      5-min Rain = 0
KME1 101439Z 20013KT 16/13 A2986 RMK A01 T01590129  RH  082%=      5-min Rain = 0
KME1 101440Z 21012G17KT 16/13 A2986 RMK A01 T01590129  RH  082%=      5-min Rain = 0
KME1 101441Z 20013KT 16/13 A2986 RMK A01 T01590129  RH  082%=      5-min Rain = 0
KME1 101442Z 20010KT 16/13 A2986 RMK A01 T01590129  RH  082%=      5-min Rain = 0
KME1 101443Z 20010KT 16/13 A2986 RMK A01 T01590129  RH  082%=      5-min Rain = 0
KME1 101444Z 20009KT 16/13 A2986 RMK A01 T01590129  RH  082%=      5-min Rain = 0
KME1 101445Z 20011KT 16/13 A2986 RMK A01 T01600129  RH  082%=      5-min Rain = 0
KME1 101446Z 21009KT 16/13 A2986 RMK A01 T01600129  RH  082%=      5-min Rain = 0
KME1 101447Z 21009KT 16/13 A2986 RMK A01 T01610129  RH  081%=      5-min Rain = 0
KME1 101448Z 20011KT 16/13 A2986 RMK A01 T01610129  RH  081%=      5-min Rain = 0
KME1 101449Z 22012KT 16/13 A2986 RMK A01 T01610129  RH  081%=      5-min Rain = 0
KME1 101450Z 21012KT 16/13 A2986 RMK A01 T01620129  RH  081%=      5-min Rain = 0
KME1 101451Z 20010KT 16/13 A2987 RMK A01 T01620129  RH  080%=      5-min Rain = 0
KME1 101452Z 20010KT 16/13 A2987 RMK A01 T01630129  RH  080%=      5-min Rain = 0
KME1 101453Z 20011KT 16/13 A2987 RMK A01 T01640129  RH  080%=      5-min Rain = 0
KME1 101454Z 20011KT 16/13 A2986 RMK A01 T01640129  RH  080%=      5-min Rain = 0
KME1 101455Z 21008KT 16/13 A2986 RMK A01 T01640129  RH  080%=      5-min Rain = 0
KME1 101456Z 21010G15KT 16/13 A2986 RMK A01 T01640129  RH  080%=      5-min Rain = 0
KME1 101457Z 21010KT 17/13 A2986 RMK A01 T01650129  RH  079%=      5-min Rain = 0
KME1 101458Z 20008KT 17/13 A2987 RMK A01 T01650129  RH  079%=      5-min Rain = 0
KME1 101459Z 21008KT 17/13 A2986 RMK A01 T01650130  RH  079%=      5-min Rain = 0
KME1 101500Z 20012KT 17/13 A2986 RMK A01 T01660129  RH  079%=      5-min Rain = 0
KME1 101501Z 21014KT 17/13 A2987 RMK A01 T01660128  RH  078%=      5-min Rain = 0
KME1 101502Z 21011G16KT 17/13 A2987 RMK A01 T01660128  RH  078%=      5-min Rain = 0
KME1 101503Z 21012KT 17/13 A2987 RMK A01 T01670129  RH  078%=      5-min Rain = 0
KME1 101504Z 21009KT 17/13 A2987 RMK A01 T01680129  RH  078%=      5-min Rain = 0
KME1 101505Z 20010KT 17/13 A2987 RMK A01 T01690129  RH  077%=      5-min Rain = 0
KME1 101506Z 20009KT 17/13 A2987 RMK A01 T01690129  RH  077%=      5-min Rain = 0
KME1 101507Z 21011KT 17/13 A2987 RMK A01 T01700128  RH  076%=      5-min Rain = 0
KME1 101508Z 21012KT 17/13 A2987 RMK A01 T01700128  RH  076%=      5-min Rain = 0
KME1 101509Z 22012KT 17/13 A2987 RMK A01 T01700127  RH  076%=      5-min Rain = 0
KME1 101510Z 21011KT 17/13 A2987 RMK A01 T01700127  RH  076%=      5-min Rain = 0
KME1 101511Z 21013KT 17/13 A2987 RMK A01 T01710127  RH  075%=      5-min Rain = 0
KME1 101512Z 21013KT 17/13 A2987 RMK A01 T01710128  RH  076%=      5-min Rain = 0
KME1 101513Z 22014KT 17/13 A2987 RMK A01 T01710127  RH  075%=      5-min Rain = 0
KME1 101514Z 21012G17KT 17/13 A2987 RMK A01 T01720127  RH  075%=      5-min Rain = 0
KME1 101515Z 21008KT 17/13 A2987 RMK A01 T01720128  RH  075%=      5-min Rain = 0
KME1 101516Z 21007KT 17/13 A2987 RMK A01 T01730129  RH  075%=      5-min Rain = 0
KME1 101517Z 21008KT 18/13 A2987 RMK A01 T01760130  RH  075%=      5-min Rain = 0
KME1 101518Z 20011KT 18/13 A2987 RMK A01 T01780130  RH  073%=      5-min Rain = 0
KME1 101519Z 21009KT 18/13 A2987 RMK A01 T01790129  RH  072%=      5-min Rain = 0
KME1 101520Z 21012KT 18/13 A2987 RMK A01 T01790129  RH  072%=      5-min Rain = 0
KME1 101521Z 21011KT 18/13 A2987 RMK A01 T01790127  RH  072%=      5-min Rain = 0
KME1 101522Z 22008KT 18/13 A2987 RMK A01 T01780127  RH  072%=      5-min Rain = 0
KME1 101523Z 21010KT 18/13 A2987 RMK A01 T01790128  RH  072%=      5-min Rain = 0
KME1 101524Z 21012KT 18/13 A2987 RMK A01 T01810127  RH  071%=      5-min Rain = 0
KME1 101525Z 21011KT 18/13 A2987 RMK A01 T01810125  RH  070%=      5-min Rain = 0
KME1 101526Z 21012KT 18/13 A2987 RMK A01 T01830126  RH  069%=      5-min Rain = 0
KME1 101527Z 20012KT 18/12 A2987 RMK A01 T01830124  RH  069%=      5-min Rain = 0
KME1 101528Z 21013KT 18/12 A2987 RMK A01 T01820124  RH  069%=      5-min Rain = 0
KME1 101529Z 21011KT 18/12 A2987 RMK A01 T01820122  RH  068%=      5-min Rain = 0
KME1 101530Z 22012KT 18/12 A2987 RMK A01 T01820122  RH  068%=      5-min Rain = 0
KME1 101531Z 22011KT 18/12 A2987 RMK A01 T01830122  RH  068%=      5-min Rain = 0
KME1 101532Z 22011KT 18/12 A2987 RMK A01 T01830122  RH  067%=      5-min Rain = 0
KME1 101533Z 21011KT 18/12 A2987 RMK A01 T01840122  RH  067%=      5-min Rain = 0
KME1 101534Z 21009KT 19/12 A2987 RMK A01 T01860122  RH  066%=      5-min Rain = 0
KME1 101535Z 21010KT 19/12 A2987 RMK A01 T01870122  RH  066%=      5-min Rain = 0
KME1 101536Z 21012KT 19/12 A2987 RMK A01 T01890120  RH  064%=      5-min Rain = 0
KME1 101537Z 22011KT 19/12 A2987 RMK A01 T01890118  RH  063%=      5-min Rain = 0
KME1 101538Z 21012KT 19/12 A2987 RMK A01 T01890117  RH  063%=      5-min Rain = 0
KME1 101539Z 22008KT 19/12 A2987 RMK A01 T01890117  RH  063%=      5-min Rain = 0
KME1 101540Z 22007KT 19/12 A2987 RMK A01 T01890119  RH  064%=      5-min Rain = 0
KME1 101541Z 22007KT 19/12 A2987 RMK A01 T01900120  RH  064%=      5-min Rain = 0
KME1 101542Z 21010KT 19/12 A2986 RMK A01 T01910118  RH  063%=      5-min Rain = 0
KME1 101543Z 21010KT 19/12 A2986 RMK A01 T01900118  RH  063%=      5-min Rain = 0
KME1 101544Z 21009KT 19/12 A2986 RMK A01 T01900118  RH  063%=      5-min Rain = 0
KME1 101545Z 22011KT 19/11 A2986 RMK A01 T01900114  RH  061%=      5-min Rain = 0
KME1 101546Z 21009KT 19/11 A2986 RMK A01 T01910113  RH  061%=      5-min Rain = 0
KME1 101547Z 22010KT 19/11 A2986 RMK A01 T01910114  RH  061%=      5-min Rain = 0
KME1 101548Z 22011KT 19/12 A2986 RMK A01 T01930116  RH  061%=      5-min Rain = 0
KME1 101549Z 22011G17KT 20/12 A2986 RMK A01 T01950115  RH  060%=      5-min Rain = 0
KME1 101550Z 22010KT 20/11 A2986 RMK A01 T01960112  RH  058%=      5-min Rain = 0
KME1 101551Z 21010KT 20/12 A2986 RMK A01 T01980116  RH  059%=      5-min Rain = 0
KME1 101552Z 21009KT 20/12 A2986 RMK A01 T01990116  RH  059%=      5-min Rain = 0
KME1 101553Z 22007KT 20/12 A2986 RMK A01 T02010117  RH  059%=      5-min Rain = 0
KME1 101554Z 23006KT 20/12 A2986 RMK A01 T02040118  RH  058%=      5-min Rain = 0
KME1 101555Z 21008KT 21/11 A2986 RMK A01 T02070111  RH  054%=      5-min Rain = 0
KME1 101556Z 21008KT 21/12 A2986 RMK A01 T02080115  RH  055%=      5-min Rain = 0
KME1 101557Z 21011G16KT 21/12 A2985 RMK A01 T02100115  RH  054%=      5-min Rain = 0
KME1 101558Z 22010KT 21/11 A2985 RMK A01 T02120106  RH  051%=      5-min Rain = 0
KME1 101559Z 22013KT 21/10 A2985 RMK A01 T02130104  RH  049%=      5-min Rain = 0
KME1 101600Z 22012KT 21/10 A2985 RMK A01 T02140103  RH  049%=      5-min Rain = 0
KME1 101601Z 22011KT 21/11 A2986 RMK A01 T02140106  RH  050%=      5-min Rain = 0
KME1 101602Z 23010KT 21/11 A2986 RMK A01 T02140106  RH  050%=      5-min Rain = 0
KME1 101603Z 23013KT 22/11 A2986 RMK A01 T02160106  RH  049%=      5-min Rain = 0
KME1 101604Z 24010KT 22/10 A2986 RMK A01 T02170102  RH  048%=      5-min Rain = 0
KME1 101605Z 24009KT 22/10 A2985 RMK A01 T02170101  RH  048%=      5-min Rain = 0
KME1 101606Z 23009KT 22/10 A2985 RMK A01 T02180101  RH  047%=      5-min Rain = 0
KME1 101607Z 22010KT 22/10 A2985 RMK A01 T02210101  RH  046%=      5-min Rain = 0
KME1 101608Z 24009KT 22/10 A2985 RMK A01 T02230098  RH  045%=      5-min Rain = 0
KME1 101609Z 23007KT 23/10 A2985 RMK A01 T02260101  RH  045%=      5-min Rain = 0
KME1 101610Z 24012KT 23/10 A2985 RMK A01 T02300096  RH  042%=      5-min Rain = 0
KME1 101611Z 24012KT 23/09 A2985 RMK A01 T02310087  RH  040%=      5-min Rain = 0
KME1 101612Z 24009KT 23/08 A2985 RMK A01 T02320082  RH  038%=      5-min Rain = 0
KME1 101613Z 24008KT 24/08 A2985 RMK A01 T02350083  RH  038%=      5-min Rain = 0
KME1 101614Z 23008G13KT 24/09 A2985 RMK A01 T02370087  RH  039%=      5-min Rain = 0
KME1 101615Z 23012KT 24/08 A2984 RMK A01 T02370082  RH  037%=      5-min Rain = 0
KME1 101616Z 24012KT 24/08 A2984 RMK A01 T02370080  RH  037%=      5-min Rain = 0
KME1 101617Z 25010KT 24/08 A2985 RMK A01 T02370078  RH  036%=      5-min Rain = 0
KME1 101618Z 25009KT 24/08 A2985 RMK A01 T02390079  RH  036%=      5-min Rain = 0
KME1 101619Z 23011G16KT 24/08 A2985 RMK A01 T02410081  RH  036%=      5-min Rain = 0
KME1 101620Z 24011KT 24/08 A2985 RMK A01 T02420080  RH  036%=      5-min Rain = 0
KME1 101621Z 25009KT 24/08 A2985 RMK A01 T02390082  RH  037%=      5-min Rain = 0
KME1 101622Z 24010KT 24/08 A2985 RMK A01 T02360081  RH  037%=      5-min Rain = 0
KME1 101623Z 24011KT 23/08 A2985 RMK A01 T02330079  RH  037%=      5-min Rain = 0
KME1 101624Z 25010G15KT 23/08 A2985 RMK A01 T02310076  RH  037%=      5-min Rain = 0
KME1 101625Z 24008G13KT 23/07 A2985 RMK A01 T02320074  RH  036%=      5-min Rain = 0
KME1 101626Z 24010KT 24/08 A2985 RMK A01 T02360079  RH  037%=      5-min Rain = 0
KME1 101627Z 23012KT 24/08 A2985 RMK A01 T02400078  RH  035%=      5-min Rain = 0
KME1 101628Z 25009KT 24/08 A2985 RMK A01 T02390077  RH  035%=      5-min Rain = 0
KME1 101629Z 24009KT 24/08 A2985 RMK A01 T02380076  RH  036%=      5-min Rain = 0
KME1 101630Z 25010KT 24/07 A2985 RMK A01 T02380074  RH  035%=      5-min Rain = 0
KME1 101631Z 25011KT 24/07 A2985 RMK A01 T02390071  RH  034%=      5-min Rain = 0
KME1 101632Z 25011KT 24/07 A2985 RMK A01 T02400065  RH  033%=      5-min Rain = 0
KME1 101633Z 24011G17KT 25/07 A2985 RMK A01 T02450068  RH  032%=      5-min Rain = 0
KME1 101634Z 24013KT 25/07 A2985 RMK A01 T02480065  RH  031%=      5-min Rain = 0
KME1 101635Z 23011KT 25/07 A2985 RMK A01 T02490068  RH  031%=      5-min Rain = 0
KME1 101636Z 25010KT 25/07 A2985 RMK A01 T02510068  RH  031%=      5-min Rain = 0
KME1 101637Z 23013KT 25/07 A2985 RMK A01 T02520068  RH  031%=      5-min Rain = 0
KME1 101638Z 25016KT 25/06 A2985 RMK A01 T02530063  RH  030%=      5-min Rain = 0
KME1 101639Z 25012KT 25/06 A2985 RMK A01 T02540057  RH  028%=      5-min Rain = 0
KME1 101640Z 26012KT 25/06 A2985 RMK A01 T02540058  RH  028%=      5-min Rain = 0
KME1 101641Z 26014G19KT 26/06 A2985 RMK A01 T02550058  RH  028%=      5-min Rain = 0
KME1 101642Z 25014KT 25/06 A2985 RMK A01 T02540057  RH  028%=      5-min Rain = 0
KME1 101643Z 26012KT 25/06 A2985 RMK A01 T02530056  RH  028%=      5-min Rain = 0
KME1 101644Z 24011G17KT 25/06 A2985 RMK A01 T02520058  RH  029%=      5-min Rain = 0
KME1 101645Z 23015KT 25/06 A2985 RMK A01 T02540057  RH  028%=      5-min Rain = 0
KME1 101646Z 23014KT 26/05 A2985 RMK A01 T02560053  RH  027%=      5-min Rain = 0
KME1 101647Z 25013G19KT 26/05 A2985 RMK A01 T02570053  RH  027%=      5-min Rain = 0
KME1 101648Z 25011KT 26/06 A2985 RMK A01 T02600055  RH  027%=      5-min Rain = 0
KME1 101649Z 25013G18KT 26/06 A2985 RMK A01 T02630055  RH  026%=      5-min Rain = 0
KME1 101650Z 27016KT 26/05 A2985 RMK A01 T02620048  RH  025%=      5-min Rain = 0
KME1 101651Z 26013KT 26/05 A2985 RMK A01 T02600047  RH  025%=      5-min Rain = 0
KME1 101652Z 27015KT 26/05 A2985 RMK A01 T02600045  RH  025%=      5-min Rain = 0
KME1 101653Z 26018G24KT 26/04 A2985 RMK A01 T02610036  RH  023%=      5-min Rain = 0
KME1 101654Z 25013KT 26/03 A2985 RMK A01 T02610031  RH  023%=      5-min Rain = 0
KME1 101655Z 27014G20KT 26/03 A2985 RMK A01 T02610033  RH  023%=      5-min Rain = 0
KME1 101656Z 26017KT 26/03 A2985 RMK A01 T02620027  RH  022%=      5-min Rain = 0
KME1 101657Z 27015KT 26/03 A2985 RMK A01 T02620030  RH  022%=      5-min Rain = 0
KME1 101658Z 26016G22KT 26/03 A2985 RMK A01 T02620029  RH  022%=      5-min Rain = 0
KME1 101659Z 26013G18KT 26/03 A2985 RMK A01 T02620030  RH  022%=      5-min Rain = 0
KME1 101700Z 26016KT 26/03 A2985 RMK A01 T02620032  RH  023%=      5-min Rain = 0
KME1 101701Z 25015KT 26/04 A2985 RMK A01 T02630036  RH  023%=      5-min Rain = 0
KME1 101702Z 25013KT 27/03 A2985 RMK A01 T02650033  RH  022%=      5-min Rain = 0
KME1 101703Z 26013KT 27/03 A2985 RMK A01 T02670030  RH  022%=      5-min Rain = 0
KME1 101704Z 26014KT 27/03 A2985 RMK A01 T02690032  RH  022%=      5-min Rain = 0
KME1 101705Z 26016KT 27/03 A2985 RMK A01 T02690026  RH  021%=      5-min Rain = 0
KME1 101706Z 28014G19KT 27/03 A2985 RMK A01 T02680025  RH  021%=      5-min Rain = 0
KME1 101707Z 27012G17KT 27/02 A2985 RMK A01 T02680024  RH  021%=      5-min Rain = 0
KME1 101708Z 27015KT 27/02 A2985 RMK A01 T02680023  RH  020%=      5-min Rain = 0
KME1 101709Z 27014KT 27/02 A2985 RMK A01 T02680021  RH  020%=      5-min Rain = 0
KME1 101710Z 26013KT 27/02 A2985 RMK A01 T02680019  RH  020%=      5-min Rain = 0
KME1 101711Z 27016KT 27/02 A2984 RMK A01 T02680020  RH  020%=      5-min Rain = 0
KME1 101712Z 26015KT 27/02 A2985 RMK A01 T02690019  RH  020%=      5-min Rain = 0
KME1 101713Z 25014KT 27/02 A2984 RMK A01 T02680019  RH  020%=      5-min Rain = 0
KME1 101714Z 26015KT 27/02 A2984 RMK A01 T02690018  RH  020%=      5-min Rain = 0
KME1 101715Z 27012G19KT 27/02 A2984 RMK A01 T02700021  RH  020%=      5-min Rain = 0
KME1 101716Z 27013G18KT 27/02 A2984 RMK A01 T02730018  RH  019%=      5-min Rain = 0
KME1 101717Z 27013KT 27/02 A2984 RMK A01 T02710018  RH  019%=      5-min Rain = 0
KME1 101718Z 27016KT 27/02 A2984 RMK A01 T02710018  RH  019%=      5-min Rain = 0
KME1 101719Z 26012KT 27/02 A2984 RMK A01 T02700021  RH  020%=      5-min Rain = 0
KME1 101720Z 24013G18KT 27/02 A2984 RMK A01 T02720023  RH  020%=      5-min Rain = 0
KME1 101721Z 25016KT 28/02 A2984 RMK A01 T02750015  RH  019%=      5-min Rain = 0
KME1 101722Z 26012G19KT 28/02 A2984 RMK A01 T02750017  RH  019%=      5-min Rain = 0
KME1 101723Z 25014KT 28/02 A2984 RMK A01 T02750016  RH  019%=      5-min Rain = 0
KME1 101724Z 26016G21KT 27/01 A2984 RMK A01 T02740014  RH  019%=      5-min Rain = 0
KME1 101725Z 26017KT 27/01 A2984 RMK A01 T02730013  RH  018%=      5-min Rain = 0
KME1 101726Z 27016G22KT 27/01 A2984 RMK A01 T02720011  RH  018%=      5-min Rain = 0
KME1 101727Z 27016KT 27/01 A2984 RMK A01 T02720008  RH  018%=      5-min Rain = 0
KME1 101728Z 26015KT 27/01 A2984 RMK A01 T02730008  RH  018%=      5-min Rain = 0
KME1 101729Z 27015KT 27/01 A2984 RMK A01 T02730010  RH  018%=      5-min Rain = 0
KME1 101730Z 27015G20KT 27/01 A2984 RMK A01 T02740009  RH  018%=      5-min Rain = 0
KME1 101731Z 27016KT 28/01 A2984 RMK A01 T02750011  RH  018%=      5-min Rain = 0
KME1 101732Z 27017KT 28/01 A2984 RMK A01 T02760011  RH  018%=      5-min Rain = 0
KME1 101733Z 25013G20KT 27/01 A2984 RMK A01 T02740013  RH  018%=      5-min Rain = 0
KME1 101734Z 25018G23KT 28/01 A2984 RMK A01 T02760012  RH  018%=      5-min Rain = 0
KME1 101735Z 25016KT 28/01 A2984 RMK A01 T02750009  RH  018%=      5-min Rain = 0
KME1 101736Z 25015KT 28/00 A2984 RMK A01 T02750004  RH  017%=      5-min Rain = 0
KME1 101737Z 25020G25KT 28/00 A2984 RMK A01 T02760003  RH  017%=      5-min Rain = 0
KME1 101738Z 26018G23KT 28/00 A2984 RMK A01 T02780001  RH  017%=      5-min Rain = 0
KME1 101739Z 26016KT 28/M00 A2984 RMK A01 T02781003  RH  016%=      5-min Rain = 0
KME1 101740Z 26015G24KT 28/M00 A2984 RMK A01 T02761004  RH  016%=      5-min Rain = 0
KME1 101741Z 25016G21KT 28/M01 A2984 RMK A01 T02771005  RH  016%=      5-min Rain = 0
KME1 101742Z 26016KT 28/M00 A2984 RMK A01 T02761002  RH  016%=      5-min Rain = 0
KME1 101743Z 25014G19KT 28/M00 A2984 RMK A01 T02771003  RH  016%=      5-min Rain = 0
KME1 101744Z 26013KT 28/M01 A2984 RMK A01 T02771005  RH  016%=      5-min Rain = 0
KME1 101745Z 24012KT 28/M00 A2984 RMK A01 T02791003  RH  016%=      5-min Rain = 0
KME1 101746Z 25011G16KT 28/M00 A2984 RMK A01 T02831001  RH  016%=      5-min Rain = 0
KME1 101747Z 25012G18KT 29/M00 A2984 RMK A01 T02871002  RH  015%=      5-min Rain = 0
KME1 101748Z 27018G23KT 29/M01 A2984 RMK A01 T02891010  RH  014%=      5-min Rain = 0
KME1 101749Z 27017G23KT 29/M02 A2984 RMK A01 T02861021  RH  013%=      5-min Rain = 0
KME1 101750Z 28017KT 28/M02 A2984 RMK A01 T02831021  RH  014%=      5-min Rain = 0
KME1 101751Z 27014KT 28/M02 A2984 RMK A01 T02831020  RH  014%=      5-min Rain = 0
KME1 101752Z 28013G19KT 28/M02 A2984 RMK A01 T02841019  RH  014%=      5-min Rain = 0
KME1 101753Z 28014KT 29/M02 A2983 RMK A01 T02861016  RH  014%=      5-min Rain = 0
KME1 101754Z 27015KT 29/M02 A2983 RMK A01 T02871021  RH  013%=      5-min Rain = 0
KME1 101755Z 27019KT 29/M03 A2983 RMK A01 T02861025  RH  013%=      5-min Rain = 0
KME1 101756Z 28018G23KT 28/M03 A2983 RMK A01 T02841030  RH  013%=      5-min Rain = 0
KME1 101757Z 28015KT 28/M03 A2983 RMK A01 T02831031  RH  013%=      5-min Rain = 0
KME1 101758Z 27015KT 28/M03 A2983 RMK A01 T02831029  RH  013%=      5-min Rain = 0
KME1 101759Z 26013G20KT 28/M03 A2983 RMK A01 T02821027  RH  013%=      5-min Rain = 0
KME1 101800Z 26013G20KT 28/M02 A2983 RMK A01 T02841024  RH  013%=      5-min Rain = 0
KME1 101801Z 28015KT 28/M03 A2983 RMK A01 T02841025  RH  013%=      5-min Rain = 0
KME1 101802Z 29015G20KT 29/M03 A2983 RMK A01 T02851027  RH  013%=      5-min Rain = 0
KME1 101803Z 29017KT 29/M03 A2983 RMK A01 T02861028  RH  013%=      5-min Rain = 0
KME1 101804Z 29015G20KT 28/M03 A2983 RMK A01 T02841027  RH  013%=      5-min Rain = 0
KME1 101805Z 28013G19KT 28/M03 A2983 RMK A01 T02841025  RH  013%=      5-min Rain = 0
KME1 101806Z 26013G18KT 29/M02 A2983 RMK A01 T02851021  RH  013%=      5-min Rain = 0
KME1 101807Z 27011KT 29/M02 A2983 RMK A01 T02881021  RH  013%=      5-min Rain = 0
KME1 101808Z 26014G19KT 29/M02 A2983 RMK A01 T02891020  RH  013%=      5-min Rain = 0
KME1 101809Z 27017G22KT 29/M02 A2983 RMK A01 T02911021  RH  013%=      5-min Rain = 0
KME1 101810Z 28016KT 29/M02 A2983 RMK A01 T02901023  RH  013%=      5-min Rain = 0
KME1 101811Z 25017KT 29/M02 A2982 RMK A01 T02891022  RH  013%=      5-min Rain = 0
KME1 101812Z 27016KT 29/M02 A2983 RMK A01 T02891021  RH  013%=      5-min Rain = 0
KME1 101813Z 30013KT 29/M02 A2982 RMK A01 T02881019  RH  013%=      5-min Rain = 0
KME1 101814Z 29012KT 29/M02 A2982 RMK A01 T02891019  RH  013%=      5-min Rain = 0
KME1 101815Z 25011G17KT 29/M02 A2982 RMK A01 T02911018  RH  013%=      5-min Rain = 0
KME1 101816Z 25014KT 29/M02 A2982 RMK A01 T02931023  RH  013%=      5-min Rain = 0
KME1 101817Z 25013KT 29/M02 A2982 RMK A01 T02931023  RH  013%=      5-min Rain = 0
KME1 101818Z 26009G14KT 29/M02 A2982 RMK A01 T02911024  RH  013%=      5-min Rain = 0
KME1 101819Z 26008KT 29/M02 A2982 RMK A01 T02901023  RH  013%=      5-min Rain = 0
KME1 101820Z 29012G23KT 29/M03 A2982 RMK A01 T02931026  RH  012%=      5-min Rain = 0
KME1 101821Z 29014KT 30/M03 A2982 RMK A01 T02951029  RH  012%=      5-min Rain = 0
KME1 101822Z 26015G20KT 29/M03 A2982 RMK A01 T02941032  RH  012%=      5-min Rain = 0
KME1 101823Z 27013KT 29/M04 A2981 RMK A01 T02931035  RH  012%=      5-min Rain = 0
KME1 101824Z 26014KT 29/M04 A2981 RMK A01 T02921038  RH  011%=      5-min Rain = 0
KME1 101825Z 27011KT 29/M04 A2981 RMK A01 T02931036  RH  012%=      5-min Rain = 0
KME1 101826Z 27008KT 30/M03 A2981 RMK A01 T02961034  RH  011%=      5-min Rain = 0
KME1 101827Z 25015G21KT 30/M04 A2981 RMK A01 T02991036  RH  011%=      5-min Rain = 0
KME1 101828Z 27012KT 30/M04 A2981 RMK A01 T02981040  RH  011%=      5-min Rain = 0
KME1 101829Z 27010KT 30/M04 A2981 RMK A01 T02981038  RH  011%=      5-min Rain = 0
KME1 101830Z 26016KT 30/M04 A2981 RMK A01 T03001042  RH  011%=      5-min Rain = 0
KME1 101831Z 26014KT 30/M05 A2981 RMK A01 T02981046  RH  010%=      5-min Rain = 0
KME1 101832Z 26016G21KT 30/M05 A2981 RMK A01 T02961046  RH  010%=      5-min Rain = 0
KME1 101833Z 26016G22KT 30/M05 A2981 RMK A01 T02951048  RH  010%=      5-min Rain = 0
KME1 101834Z 27014G19KT 29/M05 A2981 RMK A01 T02941048  RH  010%=      5-min Rain = 0
KME1 101835Z 29014KT 29/M05 A2981 RMK A01 T02941046  RH  011%=      5-min Rain = 0
KME1 101836Z 29016KT 30/M05 A2981 RMK A01 T02961047  RH  010%=      5-min Rain = 0
KME1 101837Z 30015G22KT 30/M05 A2981 RMK A01 T02951048  RH  010%=      5-min Rain = 0
KME1 101838Z 30017KT 30/M05 A2981 RMK A01 T02951048  RH  010%=      5-min Rain = 0
KME1 101839Z 29016KT 30/M05 A2981 RMK A01 T02951049  RH  010%=      5-min Rain = 0
KME1 101840Z 29012KT 29/M05 A2981 RMK A01 T02941048  RH  010%=      5-min Rain = 0
KME1 101841Z 30014KT 30/M05 A2981 RMK A01 T02951046  RH  011%=      5-min Rain = 0
KME1 101842Z 29011G16KT 30/M05 A298 RMK A01 T02951046  RH  011%=      5-min Rain = 0
KME1 101843Z 30014KT 30/M04 A298 RMK A01 T02961044  RH  011%=      5-min Rain = 0
KME1 101844Z 28015KT 30/M05 A298 RMK A01 T02971045  RH  010%=      5-min Rain = 0
KME1 101845Z 28015KT 30/M05 A298 RMK A01 T02971047  RH  010%=      5-min Rain = 0
KME1 101846Z 28010KT 30/M05 A298 RMK A01 T02951047  RH  010%=      5-min Rain = 0
KME1 101847Z 27014KT 30/M05 A298 RMK A01 T02961046  RH  011%=      5-min Rain = 0
KME1 101848Z 28014KT 30/M05 A298 RMK A01 T02971049  RH  010%=      5-min Rain = 0
KME1 101849Z 26016G21KT 30/M05 A298 RMK A01 T02961049  RH  010%=      5-min Rain = 0
KME1 101850Z 26016KT 30/M05 A298 RMK A01 T02951048  RH  010%=      5-min Rain = 0
KME1 101851Z 27010KT 30/M05 A298 RMK A01 T02951050  RH  010%=      5-min Rain = 0
KME1 101852Z 28014KT 30/M05 A298 RMK A01 T02961047  RH  010%=      5-min Rain = 0
KME1 101853Z 28011KT 30/M05 A298 RMK A01 T02981047  RH  010%=      5-min Rain = 0
KME1 101854Z 29012KT 30/M05 A298 RMK A01 T03001047  RH  010%=      5-min Rain = 0
KME1 101855Z 30012KT 30/M05 A298 RMK A01 T03001047  RH  010%=      5-min Rain = 0
KME1 101856Z 29013KT 30/M05 A298 RMK A01 T03001048  RH  010%=      5-min Rain = 0
KME1 101857Z 28011G16KT 30/M05 A298 RMK A01 T02991049  RH  010%=      5-min Rain = 0
KME1 101858Z 28014KT 30/M05 A298 RMK A01 T02991048  RH  010%=      5-min Rain = 0
KME1 101859Z 29014KT 30/M05 A298 RMK A01 T03001046  RH  010%=      5-min Rain = 0
KME1 101900Z 28010KT 30/M05 A298 RMK A01 T03021048  RH  010%=      5-min Rain = 0
KME1 101901Z 28009G14KT 30/M04 A298 RMK A01 T03021044  RH  010%=      5-min Rain = 0
KME1 101902Z 28015KT 31/M05 A298 RMK A01 T03061048  RH  010%=      5-min Rain = 0
KME1 101903Z 27015KT 30/M05 A298 RMK A01 T03041053  RH  009%=      5-min Rain = 0
KME1 101904Z 27012G20KT 30/M06 A298 RMK A01 T03011055  RH  010%=      5-min Rain = 0
KME1 101905Z 27009KT 30/M05 A298 RMK A01 T02991051  RH  010%=      5-min Rain = 0
KME1 101906Z 27015G21KT 30/M05 A298 RMK A01 T03001050  RH  010%=      5-min Rain = 0
KME1 101907Z 29014KT 30/M06 A2979 RMK A01 T03011055  RH  010%=      5-min Rain = 0
KME1 101908Z 28010G15KT 30/M05 A2979 RMK A01 T02991054  RH  010%=      5-min Rain = 0
KME1 101909Z 28010KT 30/M05 A2979 RMK A01 T03001051  RH  010%=      5-min Rain = 0
KME1 101910Z 28013KT 30/M05 A2979 RMK A01 T03041047  RH  010%=      5-min Rain = 0
KME1 101911Z 28011KT 31/M05 A2979 RMK A01 T03061053  RH  009%=      5-min Rain = 0
KME1 101912Z 28011KT 31/M05 A2979 RMK A01 T03051053  RH  009%=      5-min Rain = 0
KME1 101913Z 27013KT 31/M06 A2979 RMK A01 T03051056  RH  009%=      5-min Rain = 0
KME1 101914Z 29011KT 30/M06 A2979 RMK A01 T03011060  RH  009%=      5-min Rain = 0
KME1 101915Z 31008KT 30/M06 A2979 RMK A01 T03001058  RH  009%=      5-min Rain = 0
KME1 101916Z 29007KT 30/M05 A2979 RMK A01 T03031052  RH  010%=      5-min Rain = 0
KME1 101917Z 29007KT 31/M05 A2979 RMK A01 T03091051  RH  009%=      5-min Rain = 0
KME1 101918Z 27009KT 31/M05 A2979 RMK A01 T03111051  RH  009%=      5-min Rain = 0
KME1 101919Z 26010KT 31/M05 A2979 RMK A01 T03121051  RH  009%=      5-min Rain = 0
KME1 101920Z 28009KT 31/M05 A2979 RMK A01 T03121054  RH  009%=      5-min Rain = 0
KME1 101921Z 29008KT 31/M05 A2979 RMK A01 T03121050  RH  009%=      5-min Rain = 0
KME1 101922Z 29010G15KT 31/M06 A2979 RMK A01 T03141055  RH  009%=      5-min Rain = 0
KME1 101923Z 29010KT 31/M06 A2979 RMK A01 T03141056  RH  009%=      5-min Rain = 0
KME1 101924Z 30013KT 31/M06 A2979 RMK A01 T03111061  RH  009%=      5-min Rain = 0
KME1 101925Z 30010KT 31/M06 A2979 RMK A01 T03071064  RH  009%=      5-min Rain = 0
KME1 101926Z 31010G17KT 31/M06 A2979 RMK A01 T03061060  RH  009%=      5-min Rain = 0
KME1 101927Z 29012KT 31/M06 A2978 RMK A01 T03081059  RH  009%=      5-min Rain = 0
KME1 101928Z 28012KT 31/M06 A2978 RMK A01 T03081060  RH  009%=      5-min Rain = 0
KME1 101929Z 30014KT 31/M06 A2978 RMK A01 T03091060  RH  009%=      5-min Rain = 0
KME1 101930Z 31012KT 31/M07 A2978 RMK A01 T03081065  RH  009%=      5-min Rain = 0
KME1 101931Z 28011G16KT 31/M06 A2978 RMK A01 T03071060  RH  009%=      5-min Rain = 0
KME1 101932Z 26014G19KT 31/M06 A2978 RMK A01 T03091059  RH  009%=      5-min Rain = 0
KME1 101933Z 26015KT 31/M06 A2978 RMK A01 T03091062  RH  009%=      5-min Rain = 0
KME1 101934Z 26014KT 31/M06 A2978 RMK A01 T03061064  RH  009%=      5-min Rain = 0
KME1 101935Z 27011G17KT 30/M07 A2978 RMK A01 T03041065  RH  009%=      5-min Rain = 0
KME1 101936Z 29013KT 30/M07 A2978 RMK A01 T03031065  RH  009%=      5-min Rain = 0
KME1 101937Z 27013KT 30/M06 A2978 RMK A01 T03041064  RH  009%=      5-min Rain = 0
KME1 101938Z 27015KT 31/M06 A2978 RMK A01 T03061064  RH  009%=      5-min Rain = 0
KME1 101939Z 28013G19KT 31/M07 A2978 RMK A01 T03071065  RH  009%=      5-min Rain = 0
KME1 101940Z 29013KT 31/M07 A2978 RMK A01 T03051067  RH  008%=      5-min Rain = 0
KME1 101941Z 30011KT 30/M07 A2978 RMK A01 T03041066  RH  009%=      5-min Rain = 0
KME1 101942Z 27012KT 31/M06 A2977 RMK A01 T03051063  RH  009%=      5-min Rain = 0
KME1 101943Z 29017KT 31/M06 A2977 RMK A01 T03071064  RH  009%=      5-min Rain = 0
KME1 101944Z 29016KT 30/M07 A2977 RMK A01 T03041068  RH  008%=      5-min Rain = 0
KME1 101945Z 29014KT 30/M07 A2977 RMK A01 T03021066  RH  009%=      5-min Rain = 0
KME1 101946Z 30012G18KT 30/M07 A2977 RMK A01 T03021067  RH  009%=      5-min Rain = 0
KME1 101947Z 30014G19KT 30/M07 A2977 RMK A01 T03031067  RH  009%=      5-min Rain = 0
KME1 101948Z 29012G17KT 30/M07 A2977 RMK A01 T03011069  RH  009%=      5-min Rain = 0
KME1 101949Z 29013KT 30/M07 A2977 RMK A01 T03021065  RH  009%=      5-min Rain = 0
KME1 101950Z 29014KT 30/M07 A2977 RMK A01 T03041065  RH  009%=      5-min Rain = 0
KME1 101951Z 30013G18KT 31/M06 A2977 RMK A01 T03051064  RH  009%=      5-min Rain = 0
KME1 101952Z 29012KT 31/M06 A2977 RMK A01 T03061063  RH  009%=      5-min Rain = 0
KME1 101953Z 28014KT 31/M06 A2977 RMK A01 T03071064  RH  009%=      5-min Rain = 0
KME1 101954Z 28012KT 31/M07 A2977 RMK A01 T03081065  RH  009%=      5-min Rain = 0
KME1 101955Z 28009KT 31/M07 A2977 RMK A01 T03051067  RH  008%=      5-min Rain = 0
KME1 101956Z 29011G17KT 31/M07 A2977 RMK A01 T03051065  RH  009%=      5-min Rain = 0
KME1 101957Z 29013G18KT 31/M06 A2977 RMK A01 T03071063  RH  009%=      5-min Rain = 0
KME1 101958Z 30013KT 31/M07 A2977 RMK A01 T03071068  RH  008%=      5-min Rain = 0
KME1 101959Z 29013KT 30/M07 A2977 RMK A01 T03041068  RH  008%=      5-min Rain = 0
KME1 102000Z 30011G16KT 31/M06 A2977 RMK A01 T03051064  RH  009%=      5-min Rain = 0
KME1 102001Z 30011KT 31/M06 A2977 RMK A01 T03081064  RH  009%=      5-min Rain = 0
KME1 102002Z 31010G17KT 31/M07 A2977 RMK A01 T03081066  RH  008%=      5-min Rain = 0
KME1 102003Z 32013KT 31/M07 A2977 RMK A01 T03081066  RH  008%=      5-min Rain = 0
KME1 102004Z 30010G15KT 31/M07 A2977 RMK A01 T03071067  RH  008%=      5-min Rain = 0
KME1 102005Z 29014KT 31/M06 A2977 RMK A01 T03081062  RH  009%=      5-min Rain = 0
KME1 102006Z 28013KT 31/M07 A2977 RMK A01 T03091066  RH  008%=      5-min Rain = 0
KME1 102007Z 30013G18KT 31/M06 A2977 RMK A01 T03091063  RH  009%=      5-min Rain = 0
KME1 102008Z 31015KT 31/M07 A2977 RMK A01 T03091065  RH  008%=      5-min Rain = 0
KME1 102009Z 31012KT 31/M07 A2976 RMK A01 T03081065  RH  008%=      5-min Rain = 0
KME1 102010Z 29011KT 31/M06 A2976 RMK A01 T03081061  RH  009%=      5-min Rain = 0
KME1 102011Z 28012G17KT 31/M06 A2976 RMK A01 T03111063  RH  008%=      5-min Rain = 0
KME1 102012Z 26015G23KT 31/M06 A2976 RMK A01 T03131060  RH  009%=      5-min Rain = 0
KME1 102013Z 26017G22KT 31/M06 A2976 RMK A01 T03131064  RH  008%=      5-min Rain = 0
KME1 102014Z 26014KT 31/M07 A2977 RMK A01 T03101068  RH  008%=      5-min Rain = 0
KME1 102015Z 25011KT 31/M07 A2976 RMK A01 T03071067  RH  008%=      5-min Rain = 0
KME1 102016Z 26010G15KT 31/M07 A2976 RMK A01 T03081066  RH  008%=      5-min Rain = 0
KME1 102017Z 26010KT 31/M07 A2976 RMK A01 T03081069  RH  008%=      5-min Rain = 0
KME1 102018Z 28009KT 31/M06 A2976 RMK A01 T03071064  RH  009%=      5-min Rain = 0
KME1 102019Z 29013KT 31/M06 A2977 RMK A01 T03081062  RH  009%=      5-min Rain = 0
KME1 102020Z 30013KT 31/M07 A2977 RMK A01 T03091066  RH  008%=      5-min Rain = 0
KME1 102021Z 29013KT 31/M07 A2976 RMK A01 T03071068  RH  008%=      5-min Rain = 0
KME1 102022Z 30013G19KT 31/M07 A2976 RMK A01 T03061066  RH  009%=      5-min Rain = 0
KME1 102023Z 28013G18KT 31/M06 A2976 RMK A01 T03081063  RH  009%=      5-min Rain = 0
KME1 102024Z 26011KT 31/M07 A2976 RMK A01 T03101067  RH  008%=      5-min Rain = 0
KME1 102025Z 25007KT 31/M07 A2976 RMK A01 T03091069  RH  008%=      5-min Rain = 0
KME1 102026Z 27008KT 31/M06 A2976 RMK A01 T03091061  RH  009%=      5-min Rain = 0
KME1 102027Z 26009KT 31/M06 A2976 RMK A01 T03131063  RH  008%=      5-min Rain = 0
KME1 102028Z 27012KT 31/M06 A2976 RMK A01 T03141064  RH  008%=      5-min Rain = 0
KME1 102029Z 30010KT 31/M06 A2976 RMK A01 T03121063  RH  008%=      5-min Rain = 0
KME1 102030Z 31011KT 31/M06 A2976 RMK A01 T03131061  RH  008%=      5-min Rain = 0
KME1 102031Z 31013G18KT 31/M06 A2976 RMK A01 T03131062  RH  008%=      5-min Rain = 0
KME1 102032Z 31015G20KT 31/M07 A2976 RMK A01 T03121066  RH  008%=      5-min Rain = 0
KME1 102033Z 32012KT 31/M06 A2976 RMK A01 T03101064  RH  008%=      5-min Rain = 0
KME1 102034Z 31010KT 31/M06 A2975 RMK A01 T03091064  RH  008%=      5-min Rain = 0
KME1 102035Z 29008KT 31/M06 A2975 RMK A01 T03111060  RH  009%=      5-min Rain = 0
KME1 102036Z 30009G15KT 31/M06 A2975 RMK A01 T03141064  RH  008%=      5-min Rain = 0
KME1 102037Z 27012KT 31/M06 A2975 RMK A01 T03141064  RH  008%=      5-min Rain = 0
KME1 102038Z 28013KT 31/M07 A2975 RMK A01 T03131065  RH  008%=      5-min Rain = 0
KME1 102039Z 27011KT 31/M07 A2975 RMK A01 T03101068  RH  008%=      5-min Rain = 0
KME1 102040Z 26008KT 31/M07 A2975 RMK A01 T03091067  RH  008%=      5-min Rain = 0
KME1 102041Z 27008KT 31/M07 A2975 RMK A01 T03101066  RH  008%=      5-min Rain = 0
KME1 102042Z 27009KT 31/M07 A2975 RMK A01 T03121065  RH  008%=      5-min Rain = 0
KME1 102043Z 27013KT 32/M06 A2975 RMK A01 T03151064  RH  008%=      5-min Rain = 0
KME1 102044Z 29015KT 31/M07 A2975 RMK A01 T03141068  RH  008%=      5-min Rain = 0
KME1 102045Z 28013KT 31/M07 A2975 RMK A01 T03121067  RH  008%=      5-min Rain = 0
KME1 102046Z 28011KT 31/M07 A2976 RMK A01 T03121067  RH  008%=      5-min Rain = 0
KME1 102047Z 27012KT 31/M07 A2976 RMK A01 T03131068  RH  008%=      5-min Rain = 0
KME1 102048Z 27009KT 31/M07 A2976 RMK A01 T03121067  RH  008%=      5-min Rain = 0
KME1 102049Z 27010KT 31/M06 A2976 RMK A01 T03141063  RH  008%=      5-min Rain = 0
KME1 102050Z 27007G12KT 32/M07 A2976 RMK A01 T03161067  RH  008%=      5-min Rain = 0
KME1 102051Z 28009G16KT 31/M07 A2975 RMK A01 T03141065  RH  008%=      5-min Rain = 0
KME1 102052Z 27013KT 31/M07 A2975 RMK A01 T03141069  RH  008%=      5-min Rain = 0
KME1 102053Z 27014KT 31/M07 A2975 RMK A01 T03131068  RH  008%=      5-min Rain = 0
KME1 102054Z 28013KT 31/M07 A2975 RMK A01 T03121073  RH  008%=      5-min Rain = 0
KME1 102055Z 29014KT 31/M07 A2976 RMK A01 T03111071  RH  008%=      5-min Rain = 0
KME1 102056Z 29012KT 31/M07 A2975 RMK A01 T03111074  RH  008%=      5-min Rain = 0
KME1 102057Z 30009G14KT 31/M07 A2975 RMK A01 T03101072  RH  008%=      5-min Rain = 0
KME1 102058Z 29012KT 31/M07 A2975 RMK A01 T03121072  RH  008%=      5-min Rain = 0
KME1 102059Z 28009KT 31/M07 A2975 RMK A01 T03101074  RH  008%=      5-min Rain = 0
KME1 102100Z 28013KT 31/M07 A2975 RMK A01 T03101072  RH  008%=      5-min Rain = 0
KME1 102101Z 29013KT 31/M07 A2976 RMK A01 T03101074  RH  008%=      5-min Rain = 0
KME1 102102Z 29013KT 31/M07 A2976 RMK A01 T03101074  RH  008%=      5-min Rain = 0
KME1 102103Z 28012KT 31/M07 A2976 RMK A01 T03101072  RH  008%=      5-min Rain = 0
KME1 102104Z 28011KT 31/M07 A2976 RMK A01 T03111072  RH  008%=      5-min Rain = 0
KME1 102105Z 30010KT 31/M07 A2976 RMK A01 T03121072  RH  008%=      5-min Rain = 0
KME1 102106Z 30008KT 31/M07 A2976 RMK A01 T03131069  RH  008%=      5-min Rain = 0
KME1 102107Z 29010KT 32/M07 A2976 RMK A01 T03161071  RH  008%=      5-min Rain = 0
KME1 102108Z 30007KT 32/M07 A2975 RMK A01 T03151074  RH  008%=      5-min Rain = 0
KME1 102109Z 27005KT 31/M07 A2975 RMK A01 T03121074  RH  008%=      5-min Rain = 0
KME1 102110Z 25008KT 31/M07 A2975 RMK A01 T03131071  RH  008%=      5-min Rain = 0
KME1 102111Z 29012G17KT 31/M07 A2975 RMK A01 T03141071  RH  008%=      5-min Rain = 0
KME1 102112Z 28013KT 31/M07 A2975 RMK A01 T03141074  RH  008%=      5-min Rain = 0
KME1 102113Z 28014G19KT 31/M07 A2975 RMK A01 T03121072  RH  008%=      5-min Rain = 0
KME1 102114Z 28015KT 31/M07 A2975 RMK A01 T03111071  RH  008%=      5-min Rain = 0
KME1 102115Z 29011KT 31/M07 A2975 RMK A01 T03111072  RH  008%=      5-min Rain = 0
KME1 102116Z 26010KT 31/M07 A2975 RMK A01 T03111072  RH  008%=      5-min Rain = 0
KME1 102117Z 27012KT 31/M07 A2975 RMK A01 T03111071  RH  008%=      5-min Rain = 0
KME1 102118Z 27013KT 31/M07 A2975 RMK A01 T03121072  RH  008%=      5-min Rain = 0
KME1 102119Z 25012G17KT 31/M07 A2975 RMK A01 T03111072  RH  008%=      5-min Rain = 0
KME1 102120Z 24011KT 31/M07 A2975 RMK A01 T03101071  RH  008%=      5-min Rain = 0
KME1 102121Z 24012G17KT 31/M07 A2975 RMK A01 T03131066  RH  008%=      5-min Rain = 0
KME1 102122Z 26017KT 32/M07 A2975 RMK A01 T03161067  RH  008%=      5-min Rain = 0
KME1 102123Z 28015KT 32/M07 A2975 RMK A01 T03151068  RH  008%=      5-min Rain = 0
KME1 102124Z 29014KT 31/M07 A2975 RMK A01 T03131069  RH  008%=      5-min Rain = 0
KME1 102125Z 30012G17KT 31/M07 A2975 RMK A01 T03101074  RH  008%=      5-min Rain = 0
KME1 102126Z 29013KT 31/M07 A2975 RMK A01 T03101069  RH  008%=      5-min Rain = 0
KME1 102127Z 29011KT 31/M07 A2975 RMK A01 T03121069  RH  008%=      5-min Rain = 0
KME1 102128Z 27011KT 31/M07 A2975 RMK A01 T03121067  RH  008%=      5-min Rain = 0
KME1 102129Z 27012G19KT 31/M07 A2975 RMK A01 T03131066  RH  008%=      5-min Rain = 0
KME1 102130Z 27013KT 31/M07 A2975 RMK A01 T03131069  RH  008%=      5-min Rain = 0
KME1 102131Z 27013KT 31/M07 A2975 RMK A01 T03131067  RH  008%=      5-min Rain = 0
KME1 102132Z 26011KT 31/M07 A2975 RMK A01 T03131066  RH  008%=      5-min Rain = 0
KME1 102133Z 27009KT 31/M06 A2975 RMK A01 T03131064  RH  008%=      5-min Rain = 0
KME1 102134Z 26013G18KT 31/M06 A2975 RMK A01 T03141064  RH  008%=      5-min Rain = 0
KME1 102135Z 26010KT 31/M06 A2975 RMK A01 T03141064  RH  008%=      5-min Rain = 0
KME1 102136Z 27009KT 31/M07 A2975 RMK A01 T03141067  RH  008%=      5-min Rain = 0
KME1 102137Z 24010G15KT 31/M07 A2975 RMK A01 T03131065  RH  008%=      5-min Rain = 0
KME1 102138Z 25011G18KT 31/M06 A2975 RMK A01 T03141063  RH  008%=      5-min Rain = 0
KME1 102139Z 27012G17KT 32/M06 A2975 RMK A01 T03171062  RH  008%=      5-min Rain = 0
KME1 102140Z 28016KT 32/M07 A2975 RMK A01 T03161066  RH  008%=      5-min Rain = 0
KME1 102141Z 28010KT 31/M07 A2975 RMK A01 T03121068  RH  008%=      5-min Rain = 0
KME1 102142Z 28016KT 31/M07 A2975 RMK A01 T03111065  RH  008%=      5-min Rain = 0
KME1 102143Z 28018G24KT 31/M07 A2975 RMK A01 T03111068  RH  008%=      5-min Rain = 0
KME1 102144Z 29017G23KT 31/M07 A2975 RMK A01 T03071071  RH  008%=      5-min Rain = 0
KME1 102145Z 29011KT 31/M07 A2975 RMK A01 T03061067  RH  008%=      5-min Rain = 0
KME1 102146Z 27011G17KT 31/M07 A2975 RMK A01 T03081066  RH  008%=      5-min Rain = 0
KME1 102147Z 28013KT 31/M07 A2975 RMK A01 T03101069  RH  008%=      5-min Rain = 0
KME1 102148Z 25012G17KT 31/M07 A2975 RMK A01 T03081069  RH  008%=      5-min Rain = 0
KME1 102149Z 25014G19KT 31/M07 A2975 RMK A01 T03081069  RH  008%=      5-min Rain = 0
KME1 102150Z 26010G15KT 31/M07 A2975 RMK A01 T03081068  RH  008%=      5-min Rain = 0
KME1 102151Z 24015KT 31/M07 A2975 RMK A01 T03101069  RH  008%=      5-min Rain = 0
KME1 102152Z 24014KT 31/M07 A2975 RMK A01 T03111070  RH  008%=      5-min Rain = 0
KME1 102153Z 26013G18KT 31/M07 A2975 RMK A01 T03101071  RH  008%=      5-min Rain = 0
KME1 102154Z 28014KT 31/M07 A2975 RMK A01 T03101070  RH  008%=      5-min Rain = 0
KME1 102155Z 29011KT 31/M07 A2975 RMK A01 T03091070  RH  008%=      5-min Rain = 0
KME1 102156Z 28011KT 31/M07 A2975 RMK A01 T03091071  RH  008%=      5-min Rain = 0
KME1 102157Z 26010KT 31/M07 A2975 RMK A01 T03071072  RH  008%=      5-min Rain = 0
KME1 102158Z 28011KT 31/M07 A2975 RMK A01 T03081067  RH  008%=      5-min Rain = 0
KME1 102159Z 27012KT 31/M07 A2975 RMK A01 T03111066  RH  008%=      5-min Rain = 0
KME1 102200Z 26012KT 31/M07 A2975 RMK A01 T03111068  RH  008%=      5-min Rain = 0
KME1 102201Z 26011KT 31/M07 A2975 RMK A01 T03111068  RH  008%=      5-min Rain = 0
KME1 102202Z 25012KT 31/M07 A2975 RMK A01 T03101068  RH  008%=      5-min Rain = 0
KME1 102203Z 25012G18KT 31/M07 A2975 RMK A01 T03101069  RH  008%=      5-min Rain = 0
KME1 102204Z 26015KT 31/M07 A2974 RMK A01 T03091069  RH  008%=      5-min Rain = 0
KME1 102205Z 27014KT 31/M07 A2974 RMK A01 T03081070  RH  008%=      5-min Rain = 0
KME1 102206Z 30012G18KT 31/M07 A2974 RMK A01 T03081069  RH  008%=      5-min Rain = 0
KME1 102207Z 30014KT 31/M07 A2974 RMK A01 T03081071  RH  008%=      5-min Rain = 0
KME1 102208Z 29011KT 31/M07 A2974 RMK A01 T03071072  RH  008%=      5-min Rain = 0
KME1 102209Z 26013KT 31/M07 A2974 RMK A01 T03071069  RH  008%=      5-min Rain = 0
KME1 102210Z 26014KT 31/M07 A2974 RMK A01 T03091070  RH  008%=      5-min Rain = 0
KME1 102211Z 26012KT 31/M07 A2974 RMK A01 T03091071  RH  008%=      5-min Rain = 0
KME1 102212Z 26010G16KT 31/M07 A2974 RMK A01 T03091071  RH  008%=      5-min Rain = 0
KME1 102213Z 28010KT 31/M07 A2974 RMK A01 T03091069  RH  008%=      5-min Rain = 0
KME1 102214Z 27012KT 31/M07 A2974 RMK A01 T03101068  RH  008%=      5-min Rain = 0
KME1 102215Z 26011KT 31/M07 A2974 RMK A01 T03101069  RH  008%=      5-min Rain = 0
KME1 102216Z 26012KT 31/M07 A2974 RMK A01 T03101070  RH  008%=      5-min Rain = 0
KME1 102217Z 26012KT 31/M07 A2974 RMK A01 T03081072  RH  008%=      5-min Rain = 0
KME1 102218Z 26012KT 31/M07 A2974 RMK A01 T03061072  RH  008%=      5-min Rain = 0
KME1 102219Z 26011KT 31/M07 A2974 RMK A01 T03061071  RH  008%=      5-min Rain = 0
KME1 102220Z 26010G15KT 31/M07 A2974 RMK A01 T03061069  RH  008%=      5-min Rain = 0
KME1 102221Z 26010G16KT 31/M07 A2974 RMK A01 T03071068  RH  008%=      5-min Rain = 0
KME1 102222Z 27012KT 31/M07 A2974 RMK A01 T03081068  RH  008%=      5-min Rain = 0
KME1 102223Z 27010KT 31/M07 A2974 RMK A01 T03091069  RH  008%=      5-min Rain = 0
KME1 102224Z 28011KT 31/M07 A2974 RMK A01 T03071074  RH  008%=      5-min Rain = 0
KME1 102225Z 30010G16KT 31/M08 A2974 RMK A01 T03061076  RH  008%=      5-min Rain = 0
KME1 102226Z 31015KT 31/M08 A2974 RMK A01 T03061075  RH  008%=      5-min Rain = 0
KME1 102227Z 30016KT 31/M07 A2974 RMK A01 T03061073  RH  008%=      5-min Rain = 0
KME1 102228Z 29012KT 31/M08 A2974 RMK A01 T03051075  RH  008%=      5-min Rain = 0
KME1 102229Z 29010KT 30/M08 A2974 RMK A01 T03031075  RH  008%=      5-min Rain = 0
KME1 102230Z 29008KT 30/M08 A2974 RMK A01 T03031076  RH  008%=      5-min Rain = 0
KME1 102231Z 28013KT 30/M07 A2974 RMK A01 T03031074  RH  008%=      5-min Rain = 0
KME1 102232Z 27011G18KT 30/M08 A2974 RMK A01 T03041075  RH  008%=      5-min Rain = 0
KME1 102233Z 28011KT 30/M07 A2974 RMK A01 T03041073  RH  008%=      5-min Rain = 0
KME1 102234Z 29012KT 30/M07 A2974 RMK A01 T03041074  RH  008%=      5-min Rain = 0
KME1 102235Z 29013KT 30/M08 A2974 RMK A01 T03031076  RH  008%=      5-min Rain = 0
KME1 102236Z 28011G17KT 30/M08 A2974 RMK A01 T03031075  RH  008%=      5-min Rain = 0
KME1 102237Z 27011KT 30/M07 A2974 RMK A01 T03031070  RH  008%=      5-min Rain = 0
KME1 102238Z 29013KT 30/M07 A2974 RMK A01 T03031070  RH  008%=      5-min Rain = 0
KME1 102239Z 27011G16KT 30/M07 A2974 RMK A01 T03031069  RH  008%=      5-min Rain = 0
KME1 102240Z 28010KT 30/M07 A2974 RMK A01 T03011069  RH  009%=      5-min Rain = 0
KME1 102241Z 28012KT 30/M07 A2974 RMK A01 T03011069  RH  009%=      5-min Rain = 0
KME1 102242Z 28010G15KT 30/M07 A2974 RMK A01 T03011068  RH  009%=      5-min Rain = 0
KME1 102243Z 27007G14KT 30/M07 A2974 RMK A01 T03011067  RH  009%=      5-min Rain = 0
KME1 102244Z 29007KT 30/M07 A2974 RMK A01 T03011067  RH  009%=      5-min Rain = 0
KME1 102245Z 29007KT 30/M07 A2974 RMK A01 T03011072  RH  008%=      5-min Rain = 0
KME1 102246Z 30008KT 30/M07 A2974 RMK A01 T02991071  RH  008%=      5-min Rain = 0
KME1 102247Z 29007KT 30/M07 A2974 RMK A01 T02991070  RH  009%=      5-min Rain = 0
KME1 102248Z 30007G12KT 30/M07 A2974 RMK A01 T02981069  RH  009%=      5-min Rain = 0
KME1 102249Z 29013KT 30/M07 A2974 RMK A01 T02991068  RH  009%=      5-min Rain = 0
KME1 102250Z 26011KT 30/M06 A2974 RMK A01 T02991064  RH  009%=      5-min Rain = 0
KME1 102251Z 27010KT 30/M07 A2974 RMK A01 T03001067  RH  009%=      5-min Rain = 0
KME1 102252Z 29008KT 30/M07 A2974 RMK A01 T03001067  RH  009%=      5-min Rain = 0
KME1 102253Z 28011KT 30/M07 A2974 RMK A01 T03001066  RH  009%=      5-min Rain = 0
KME1 102254Z 30011KT 30/M07 A2974 RMK A01 T02981068  RH  009%=      5-min Rain = 0
KME1 102255Z 30012KT 30/M07 A2974 RMK A01 T02971067  RH  009%=      5-min Rain = 0
KME1 102256Z 29011KT 30/M07 A2974 RMK A01 T02961066  RH  009%=      5-min Rain = 0
KME1 102257Z 28011KT 29/M07 A2974 RMK A01 T02941067  RH  009%=      5-min Rain = 0
KME1 102258Z 28009KT 29/M07 A2974 RMK A01 T02931065  RH  009%=      5-min Rain = 0
KME1 102259Z 27010KT 29/M07 A2974 RMK A01 T02931065  RH  009%=      5-min Rain = 0
KME1 102300Z 27008KT 29/M07 A2974 RMK A01 T02921066  RH  009%=      5-min Rain = 0
KME1 102301Z 27007G12KT 29/M06 A2974 RMK A01 T02911064  RH  009%=      5-min Rain = 0
KME1 102302Z 27009KT 29/M06 A2975 RMK A01 T02921063  RH  009%=      5-min Rain = 0
KME1 102303Z 25012KT 29/M07 A2975 RMK A01 T02911067  RH  009%=      5-min Rain = 0
KME1 102304Z 25014KT 29/M07 A2975 RMK A01 T02911070  RH  009%=      5-min Rain = 0
KME1 102305Z 25011KT 29/M07 A2975 RMK A01 T02901071  RH  009%=      5-min Rain = 0
KME1 102306Z 27009KT 29/M07 A2975 RMK A01 T02901069  RH  009%=      5-min Rain = 0
KME1 102307Z 26009KT 29/M07 A2975 RMK A01 T02891068  RH  009%=      5-min Rain = 0
KME1 102308Z 26011KT 29/M07 A2975 RMK A01 T02891067  RH  009%=      5-min Rain = 0
KME1 102309Z 26010G15KT 29/M07 A2975 RMK A01 T02881065  RH  009%=      5-min Rain = 0
KME1 102310Z 25010KT 29/M07 A2975 RMK A01 T02881065  RH  009%=      5-min Rain = 0
KME1 102311Z 26011KT 29/M07 A2975 RMK A01 T02891067  RH  009%=      5-min Rain = 0
KME1 102312Z 27010KT 29/M07 A2975 RMK A01 T02881067  RH  009%=      5-min Rain = 0
KME1 102313Z 27009KT 29/M07 A2975 RMK A01 T02881067  RH  009%=      5-min Rain = 0
KME1 102314Z 28010KT 29/M07 A2975 RMK A01 T02891067  RH  009%=      5-min Rain = 0
KME1 102315Z 29011KT 29/M07 A2975 RMK A01 T02891071  RH  009%=      5-min Rain = 0
KME1 102316Z 28009KT 29/M07 A2975 RMK A01 T02891071  RH  009%=      5-min Rain = 0
KME1 102317Z 28009KT 29/M07 A2975 RMK A01 T02891070  RH  009%=      5-min Rain = 0
KME1 102318Z 27007KT 29/M07 A2975 RMK A01 T02881071  RH  009%=      5-min Rain = 0
KME1 102319Z 27008KT 29/M07 A2975 RMK A01 T02891070  RH  009%=      5-min Rain = 0
KME1 102320Z 27008KT 29/M07 A2975 RMK A01 T02891068  RH  009%=      5-min Rain = 0
KME1 102321Z 27007KT 29/M07 A2975 RMK A01 T02891069  RH  009%=      5-min Rain = 0
KME1 102322Z 28005KT 29/M07 A2975 RMK A01 T02891065  RH  009%=      5-min Rain = 0
KME1 102323Z 27008KT 29/M07 A2975 RMK A01 T02901065  RH  009%=      5-min Rain = 0
KME1 102324Z 28010KT 29/M07 A2975 RMK A01 T02901068  RH  009%=      5-min Rain = 0
KME1 102325Z 28008KT 29/M07 A2975 RMK A01 T02901069  RH  009%=      5-min Rain = 0
KME1 102326Z 28008KT 29/M07 A2975 RMK A01 T02891068  RH  009%=      5-min Rain = 0
KME1 102327Z 28011KT 29/M07 A2975 RMK A01 T02891069  RH  009%=      5-min Rain = 0
KME1 102328Z 29009KT 29/M07 A2975 RMK A01 T02881071  RH  009%=      5-min Rain = 0
KME1 102329Z 28006KT 29/M07 A2975 RMK A01 T02881069  RH  009%=      5-min Rain = 0
KME1 102330Z 29010KT 29/M07 A2975 RMK A01 T02871069  RH  009%=      5-min Rain = 0
KME1 102331Z 29012KT 29/M07 A2975 RMK A01 T02871072  RH  009%=      5-min Rain = 0
KME1 102332Z 28007KT 29/M07 A2975 RMK A01 T02871072  RH  009%=      5-min Rain = 0
KME1 102333Z 28006KT 29/M07 A2975 RMK A01 T02861069  RH  009%=      5-min Rain = 0
KME1 102334Z 28008KT 29/M07 A2975 RMK A01 T02861068  RH  009%=      5-min Rain = 0
KME1 102335Z 26008KT 29/M07 A2975 RMK A01 T02851069  RH  009%=      5-min Rain = 0
KME1 102336Z 28008KT 29/M07 A2975 RMK A01 T02851069  RH  009%=      5-min Rain = 0
KME1 102337Z 27008KT 28/M07 A2975 RMK A01 T02841069  RH  009%=      5-min Rain = 0
KME1 102338Z 26005KT 28/M07 A2975 RMK A01 T02841067  RH  010%=      5-min Rain = 0
KME1 102339Z 27004KT 28/M07 A2975 RMK A01 T02831065  RH  010%=      5-min Rain = 0
KME1 102340Z 26006KT 28/M06 A2975 RMK A01 T02821063  RH  010%=      5-min Rain = 0
KME1 102341Z 27006KT 28/M06 A2976 RMK A01 T02811063  RH  010%=      5-min Rain = 0
KME1 102342Z 27008KT 28/M06 A2976 RMK A01 T02811062  RH  010%=      5-min Rain = 0
KME1 102343Z 27008KT 28/M06 A2976 RMK A01 T02811062  RH  010%=      5-min Rain = 0
KME1 102344Z 26008KT 28/M06 A2976 RMK A01 T02801063  RH  010%=      5-min Rain = 0
KME1 102345Z 26009KT 28/M06 A2976 RMK A01 T02801062  RH  010%=      5-min Rain = 0
KME1 102346Z 27006KT 28/M06 A2976 RMK A01 T02801063  RH  010%=      5-min Rain = 0
KME1 102347Z 27006KT 28/M06 A2976 RMK A01 T02791061  RH  010%=      5-min Rain = 0
KME1 102348Z 26006KT 28/M06 A2976 RMK A01 T02781063  RH  010%=      5-min Rain = 0
KME1 102349Z 27008KT 28/M06 A2976 RMK A01 T02781062  RH  010%=      5-min Rain = 0
KME1 102350Z 27006KT 28/M06 A2976 RMK A01 T02781063  RH  010%=      5-min Rain = 0
KME1 102351Z 26006KT 28/M06 A2976 RMK A01 T02781062  RH  010%=      5-min Rain = 0
KME1 102352Z 27007KT 28/M06 A2976 RMK A01 T02781062  RH  010%=      5-min Rain = 0
KME1 102353Z 27006KT 28/M06 A2976 RMK A01 T02771063  RH  010%=      5-min Rain = 0
KME1 102354Z 26005KT 28/M06 A2976 RMK A01 T02771061  RH  010%=      5-min Rain = 0
KME1 102355Z 28007KT 28/M06 A2976 RMK A01 T02771061  RH  011%=      5-min Rain = 0
KME1 102356Z 28009KT 28/M06 A2976 RMK A01 T02761064  RH  010%=      5-min Rain = 0
KME1 102357Z 26006KT 28/M06 A2976 RMK A01 T02771062  RH  010%=      5-min Rain = 0
KME1 102358Z 26006KT 28/M06 A2976 RMK A01 T02771061  RH  010%=      5-min Rain = 0
KME1 102359Z 26006KT 28/M06 A2976 RMK A01 T02771061  RH  010%=      5-min Rain = 0
KME1 110000Z 27007KT 28/M06 A2976 RMK A01 T02761060  RH  011%=      5-min Rain = 0
KME1 110001Z 27007KT 28/M06 A2976 RMK A01 T02751061  RH  011%=      5-min Rain = 0
KME1 110002Z 27008KT 28/M06 A2976 RMK A01 T02751061  RH  011%=      5-min Rain = 0
KME1 110003Z 27007KT 28/M06 A2976 RMK A01 T02751062  RH  010%=      5-min Rain = 0
KME1 110004Z 26007KT 28/M06 A2976 RMK A01 T02761060  RH  011%=      5-min Rain = 0
KME1 110005Z 26008KT 28/M06 A2976 RMK A01 T02751061  RH  011%=      5-min Rain = 0
KME1 110006Z 26008KT 28/M06 A2976 RMK A01 T02761061  RH  011%=      5-min Rain = 0
KME1 110007Z 26008KT 28/M06 A2976 RMK A01 T02761060  RH  011%=      5-min Rain = 0
KME1 110008Z 26007KT 28/M06 A2976 RMK A01 T02751059  RH  011%=      5-min Rain = 0
KME1 110009Z 26007KT 28/M06 A2976 RMK A01 T02751059  RH  011%=      5-min Rain = 0
KME1 110010Z 26006KT 27/M06 A2976 RMK A01 T02741059  RH  011%=      5-min Rain = 0
KME1 110011Z 26007KT 27/M06 A2976 RMK A01 T02731059  RH  011%=      5-min Rain = 0
KME1 110012Z 26006KT 27/M06 A2976 RMK A01 T02731059  RH  011%=      5-min Rain = 0
KME1 110013Z 26006KT 27/M06 A2976 RMK A01 T02721058  RH  011%=      5-min Rain = 0
KME1 110014Z 25006KT 27/M06 A2976 RMK A01 T02711057  RH  011%=      5-min Rain = 0
KME1 110015Z 26007KT 27/M06 A2976 RMK A01 T02711058  RH  011%=      5-min Rain = 0
KME1 110016Z 26006KT 27/M06 A2976 RMK A01 T02711058  RH  011%=      5-min Rain = 0
KME1 110017Z 26007KT 27/M06 A2976 RMK A01 T02711057  RH  011%=      5-min Rain = 0
KME1 110018Z 26007KT 27/M06 A2976 RMK A01 T02711057  RH  011%=      5-min Rain = 0
KME1 110019Z 27006KT 27/M06 A2976 RMK A01 T02701058  RH  011%=      5-min Rain = 0
KME1 110020Z 27005KT 27/M06 A2976 RMK A01 T02711056  RH  011%=      5-min Rain = 0
KME1 110021Z 26006KT 27/M06 A2976 RMK A01 T02701056  RH  011%=      5-min Rain = 0
KME1 110022Z 26007KT 27/M06 A2976 RMK A01 T02691056  RH  011%=      5-min Rain = 0
KME1 110023Z 26008KT 27/M06 A2977 RMK A01 T02691056  RH  011%=      5-min Rain = 0
KME1 110024Z 27006KT 27/M06 A2977 RMK A01 T02691056  RH  011%=      5-min Rain = 0
KME1 110025Z 26007KT 27/M06 A2977 RMK A01 T02681055  RH  012%=      5-min Rain = 0
KME1 110026Z 27006KT 27/M06 A2977 RMK A01 T02681055  RH  012%=      5-min Rain = 0
KME1 110027Z 26006KT 27/M05 A2977 RMK A01 T02681054  RH  012%=      5-min Rain = 0
KME1 110028Z 26007KT 27/M05 A2977 RMK A01 T02671053  RH  012%=      5-min Rain = 0
KME1 110029Z 26006KT 27/M05 A2977 RMK A01 T02671053  RH  012%=      5-min Rain = 0
KME1 110030Z 26006KT 27/M05 A2977 RMK A01 T02671054  RH  012%=      5-min Rain = 0
KME1 110031Z 26006KT 27/M05 A2977 RMK A01 T02671054  RH  012%=      5-min Rain = 0
KME1 110032Z 26005KT 27/M05 A2977 RMK A01 T02671051  RH  012%=      5-min Rain = 0
KME1 110033Z 26005KT 27/M05 A2977 RMK A01 T02651052  RH  012%=      5-min Rain = 0
KME1 110034Z 25006KT 26/M05 A2977 RMK A01 T02641052  RH  012%=      5-min Rain = 0
KME1 110035Z 25007KT 26/M05 A2977 RMK A01 T02641052  RH  012%=      5-min Rain = 0
KME1 110036Z 25006KT 26/M05 A2977 RMK A01 T02641052  RH  012%=      5-min Rain = 0
KME1 110037Z 25006KT 26/M05 A2977 RMK A01 T02641053  RH  012%=      5-min Rain = 0
KME1 110038Z 25006KT 26/M05 A2977 RMK A01 T02641052  RH  012%=      5-min Rain = 0
KME1 110039Z 25006KT 26/M05 A2977 RMK A01 T02631051  RH  012%=      5-min Rain = 0
KME1 110040Z 25005KT 26/M05 A2977 RMK A01 T02631050  RH  012%=      5-min Rain = 0
KME1 110041Z 25005KT 26/M05 A2977 RMK A01 T02621050  RH  012%=      5-min Rain = 0
KME1 110042Z 25005KT 26/M05 A2977 RMK A01 T02611049  RH  013%=      5-min Rain = 0
KME1 110043Z 25006KT 26/M05 A2977 RMK A01 T02601049  RH  013%=      5-min Rain = 0
KME1 110044Z 25006KT 26/M05 A2977 RMK A01 T02591049  RH  013%=      5-min Rain = 0
KME1 110045Z 25006KT 26/M05 A2977 RMK A01 T02591049  RH  013%=      5-min Rain = 0
KME1 110046Z 25005KT 26/M05 A2977 RMK A01 T02581048  RH  013%=      5-min Rain = 0
KME1 110047Z 25006KT 26/M05 A2977 RMK A01 T02571049  RH  013%=      5-min Rain = 0
KME1 110048Z 25006KT 26/M05 A2977 RMK A01 T02571048  RH  013%=      5-min Rain = 0
KME1 110049Z 25005KT 26/M05 A2977 RMK A01 T02581047  RH  013%=      5-min Rain = 0
KME1 110050Z 25006KT 26/M05 A2977 RMK A01 T02571048  RH  013%=      5-min Rain = 0
KME1 110051Z 25005KT 26/M05 A2978 RMK A01 T02561047  RH  013%=      5-min Rain = 0
KME1 110052Z 25006KT 26/M05 A2978 RMK A01 T02561047  RH  013%=      5-min Rain = 0
KME1 110053Z 25005KT 26/M05 A2978 RMK A01 T02551046  RH  013%=      5-min Rain = 0
KME1 110054Z 25005KT 26/M05 A2978 RMK A01 T02551046  RH  013%=      5-min Rain = 0
KME1 110055Z 25005KT 25/M05 A2978 RMK A01 T02541047  RH  013%=      5-min Rain = 0
KME1 110056Z 25005KT 25/M05 A2978 RMK A01 T02541047  RH  013%=      5-min Rain = 0
KME1 110057Z 25006KT 25/M05 A2978 RMK A01 T02531046  RH  013%=      5-min Rain = 0
KME1 110058Z 25005KT 25/M05 A2978 RMK A01 T02531046  RH  013%=      5-min Rain = 0
KME1 110059Z 25005KT 25/M05 A2978 RMK A01 T02531046  RH  014%=      5-min Rain = 0
KME1 110100Z 25005KT 25/M05 A2978 RMK A01 T02521045  RH  014%=      5-min Rain = 0
KME1 110101Z 25005KT 25/M04 A2978 RMK A01 T02511044  RH  014%=      5-min Rain = 0
KME1 110102Z 25005KT 25/M05 A2978 RMK A01 T02501045  RH  014%=      5-min Rain = 0
KME1 110103Z 24005KT 25/M04 A2978 RMK A01 T02501044  RH  014%=      5-min Rain = 0
KME1 110104Z 24005KT 25/M04 A2978 RMK A01 T02491044  RH  014%=      5-min Rain = 0
KME1 110105Z 24005KT 25/M04 A2978 RMK A01 T02481043  RH  014%=      5-min Rain = 0
KME1 110106Z 24005KT 25/M04 A2978 RMK A01 T02471043  RH  014%=      5-min Rain = 0
KME1 110107Z 24005KT 25/M04 A2978 RMK A01 T02461043  RH  014%=      5-min Rain = 0
KME1 110108Z 24005KT 25/M04 A2978 RMK A01 T02451043  RH  014%=      5-min Rain = 0
KME1 110109Z 24005KT 24/M04 A2978 RMK A01 T02441043  RH  015%=      5-min Rain = 0
KME1 110110Z 24005KT 24/M04 A2978 RMK A01 T02431042  RH  015%=      5-min Rain = 0
KME1 110111Z 24005KT 24/M04 A2978 RMK A01 T02431042  RH  015%=      5-min Rain = 0
KME1 110112Z 24005KT 24/M04 A2978 RMK A01 T02421042  RH  015%=      5-min Rain = 0
KME1 110113Z 24005KT 24/M04 A2978 RMK A01 T02411042  RH  015%=      5-min Rain = 0
KME1 110114Z 24005KT 24/M04 A2978 RMK A01 T02411041  RH  015%=      5-min Rain = 0
KME1 110115Z 24005KT 24/M04 A2978 RMK A01 T02401041  RH  015%=      5-min Rain = 0
KME1 110116Z 24005KT 24/M04 A2978 RMK A01 T02391041  RH  015%=      5-min Rain = 0
KME1 110117Z 24005KT 24/M04 A2978 RMK A01 T02381042  RH  015%=      5-min Rain = 0
KME1 110118Z 25005KT 24/M04 A2978 RMK A01 T02381042  RH  015%=      5-min Rain = 0
KME1 110119Z 24005KT 24/M04 A2979 RMK A01 T02381041  RH  015%=      5-min Rain = 0
KME1 110120Z 25005KT 24/M04 A2979 RMK A01 T02371041  RH  015%=      5-min Rain = 0
KME1 110121Z 24005KT 24/M04 A2979 RMK A01 T02371041  RH  015%=      5-min Rain = 0
KME1 110122Z 25006KT 24/M04 A2979 RMK A01 T02361041  RH  015%=      5-min Rain = 0
KME1 110123Z 25005KT 24/M04 A2979 RMK A01 T02361041  RH  015%=      5-min Rain = 0
KME1 110124Z 25006KT 24/M04 A2979 RMK A01 T02351042  RH  015%=      5-min Rain = 0
KME1 110125Z 25005KT 24/M04 A2979 RMK A01 T02351041  RH  016%=      5-min Rain = 0
KME1 110126Z 25005KT 24/M04 A2979 RMK A01 T02351041  RH  016%=      5-min Rain = 0
KME1 110127Z 25005KT 24/M04 A2979 RMK A01 T02351041  RH  016%=      5-min Rain = 0
KME1 110128Z 25005KT 23/M04 A2979 RMK A01 T02341041  RH  016%=      5-min Rain = 0
KME1 110129Z 25005KT 23/M04 A2979 RMK A01 T02341042  RH  016%=      5-min Rain = 0
KME1 110130Z 25005KT 23/M04 A2979 RMK A01 T02341041  RH  016%=      5-min Rain = 0
KME1 110131Z 25005KT 23/M04 A2979 RMK A01 T02331042  RH  016%=      5-min Rain = 0
KME1 110132Z 25005KT 23/M04 A2979 RMK A01 T02321042  RH  016%=      5-min Rain = 0
KME1 110133Z 25005KT 23/M04 A2979 RMK A01 T02321042  RH  016%=      5-min Rain = 0
KME1 110134Z 25005KT 23/M04 A2979 RMK A01 T02321042  RH  016%=      5-min Rain = 0
KME1 110135Z 25005KT 23/M04 A2979 RMK A01 T02321043  RH  016%=      5-min Rain = 0
KME1 110136Z 25005KT 23/M04 A2979 RMK A01 T02311043  RH  016%=      5-min Rain = 0
KME1 110137Z 25005KT 23/M04 A2979 RMK A01 T02311043  RH  016%=      5-min Rain = 0
KME1 110138Z 25005KT 23/M04 A2979 RMK A01 T02311043  RH  016%=      5-min Rain = 0
KME1 110139Z 25006KT 23/M04 A2979 RMK A01 T02311043  RH  016%=      5-min Rain = 0
KME1 110140Z 25005KT 23/M04 A2979 RMK A01 T02311043  RH  016%=      5-min Rain = 0
KME1 110141Z 25006KT 23/M04 A2979 RMK A01 T02311042  RH  016%=      5-min Rain = 0
KME1 110142Z 25006KT 23/M04 A2979 RMK A01 T02301043  RH  016%=      5-min Rain = 0
KME1 110143Z 25006KT 23/M04 A2979 RMK A01 T02301043  RH  016%=      5-min Rain = 0
KME1 110144Z 25005KT 23/M04 A2979 RMK A01 T02301043  RH  016%=      5-min Rain = 0
KME1 110145Z 25006KT 23/M04 A2979 RMK A01 T02291043  RH  016%=      5-min Rain = 0
KME1 110146Z 25006KT 23/M04 A2979 RMK A01 T02291043  RH  016%=      5-min Rain = 0
KME1 110147Z 25006KT 23/M04 A2979 RMK A01 T02291043  RH  016%=      5-min Rain = 0
KME1 110148Z 25006KT 23/M04 A2979 RMK A01 T02291044  RH  016%=      5-min Rain = 0
KME1 110149Z 25006KT 23/M04 A2979 RMK A01 T02291043  RH  016%=      5-min Rain = 0
KME1 110150Z 25005KT 23/M04 A2979 RMK A01 T02291044  RH  016%=      5-min Rain = 0
KME1 110151Z 25005KT 23/M04 A2979 RMK A01 T02291044  RH  016%=      5-min Rain = 0
KME1 110152Z 25006KT 23/M04 A2979 RMK A01 T02291044  RH  016%=      5-min Rain = 0
KME1 110153Z 25006KT 23/M05 A2979 RMK A01 T02291045  RH  016%=      5-min Rain = 0
KME1 110154Z 25006KT 23/M04 A2979 RMK A01 T02291044  RH  016%=      5-min Rain = 0
KME1 110155Z 25006KT 23/M04 A2979 RMK A01 T02291044  RH  016%=      5-min Rain = 0
KME1 110156Z 25006KT 23/M04 A2979 RMK A01 T02291044  RH  016%=      5-min Rain = 0
KME1 110157Z 25006KT 23/M05 A2979 RMK A01 T02291045  RH  016%=      5-min Rain = 0
KME1 110158Z 25006KT 23/M05 A2979 RMK A01 T02291045  RH  016%=      5-min Rain = 0
KME1 110159Z 25006KT 23/M05 A2979 RMK A01 T02291046  RH  016%=      5-min Rain = 0
KME1 110200Z 25006KT 23/M05 A2979 RMK A01 T02301045  RH  016%=      5-min Rain = 0
KME1 110201Z 25006KT 23/M05 A2979 RMK A01 T02301046  RH  015%=      5-min Rain = 0
KME1 110202Z 25006KT 23/M05 A2979 RMK A01 T02311046  RH  015%=      5-min Rain = 0
KME1 110203Z 25006KT 23/M05 A2979 RMK A01 T02311046  RH  015%=      5-min Rain = 0
KME1 110204Z 25006KT 23/M05 A2979 RMK A01 T02321046  RH  015%=      5-min Rain = 0
KME1 110205Z 25005KT 23/M05 A2979 RMK A01 T02321046  RH  015%=      5-min Rain = 0
KME1 110206Z 25006KT 23/M05 A2979 RMK A01 T02321045  RH  015%=      5-min Rain = 0
KME1 110207Z 25006KT 23/M05 A2979 RMK A01 T02321046  RH  015%=      5-min Rain = 0
KME1 110208Z 25007KT 23/M05 A2979 RMK A01 T02321046  RH  015%=      5-min Rain = 0
KME1 110209Z 25007KT 23/M05 A298 RMK A01 T02331046  RH  015%=      5-min Rain = 0
KME1 110210Z 26006KT 23/M05 A298 RMK A01 T02331047  RH  015%=      5-min Rain = 0
KME1 110211Z 25007KT 23/M05 A298 RMK A01 T02341047  RH  015%=      5-min Rain = 0
KME1 110212Z 26007KT 24/M05 A298 RMK A01 T02351046  RH  015%=      5-min Rain = 0
KME1 110213Z 26007KT 24/M05 A298 RMK A01 T02351047  RH  015%=      5-min Rain = 0
KME1 110214Z 26007KT 24/M05 A298 RMK A01 T02361047  RH  015%=      5-min Rain = 0
KME1 110215Z 26007KT 24/M05 A298 RMK A01 T02371048  RH  015%=      5-min Rain = 0
KME1 110216Z 26007KT 24/M05 A298 RMK A01 T02381047  RH  015%=      5-min Rain = 0
KME1 110217Z 26006KT 24/M05 A298 RMK A01 T02381047  RH  015%=      5-min Rain = 0
KME1 110218Z 26007KT 24/M05 A298 RMK A01 T02381047  RH  015%=      5-min Rain = 0
KME1 110219Z 26007KT 24/M05 A298 RMK A01 T02391048  RH  014%=      5-min Rain = 0
KME1 110220Z 26006KT 24/M05 A298 RMK A01 T02401048  RH  014%=      5-min Rain = 0
KME1 110221Z 26007KT 24/M05 A298 RMK A01 T02411048  RH  014%=      5-min Rain = 0
KME1 110222Z 26007KT 24/M05 A298 RMK A01 T02411049  RH  014%=      5-min Rain = 0
KME1 110223Z 26007KT 24/M05 A298 RMK A01 T02421049  RH  014%=      5-min Rain = 0
KME1 110224Z 26007KT 24/M05 A298 RMK A01 T02421049  RH  014%=      5-min Rain = 0
KME1 110225Z 26006KT 24/M05 A298 RMK A01 T02431049  RH  014%=      5-min Rain = 0
KME1 110226Z 26007KT 24/M05 A298 RMK A01 T02431048  RH  014%=      5-min Rain = 0
KME1 110227Z 26007KT 24/M05 A298 RMK A01 T02431048  RH  014%=      5-min Rain = 0
KME1 110228Z 26007KT 24/M05 A298 RMK A01 T02431048  RH  014%=      5-min Rain = 0
KME1 110229Z 26007KT 24/M05 A298 RMK A01 T02431049  RH  014%=      5-min Rain = 0
KME1 110230Z 26007KT 24/M05 A298 RMK A01 T02431049  RH  014%=      5-min Rain = 0
KME1 110231Z 26007KT 24/M05 A298 RMK A01 T02431048  RH  014%=      5-min Rain = 0
KME1 110232Z 26007KT 24/M05 A2981 RMK A01 T02431048  RH  014%=      5-min Rain = 0
KME1 110233Z 26006KT 24/M05 A2981 RMK A01 T02431048  RH  014%=      5-min Rain = 0
KME1 110234Z 26006KT 24/M05 A2981 RMK A01 T02431049  RH  014%=      5-min Rain = 0
KME1 110235Z 27006KT 24/M05 A2981 RMK A01 T02431049  RH  014%=      5-min Rain = 0
KME1 110236Z 26007KT 24/M05 A2981 RMK A01 T02441049  RH  014%=      5-min Rain = 0
KME1 110237Z 26006KT 24/M05 A2981 RMK A01 T02441049  RH  014%=      5-min Rain = 0
KME1 110238Z 26006KT 24/M05 A2981 RMK A01 T02441049  RH  014%=      5-min Rain = 0
KME1 110239Z 26006KT 24/M05 A2981 RMK A01 T02441049  RH  014%=      5-min Rain = 0
KME1 110240Z 26005KT 24/M05 A2981 RMK A01 T02441048  RH  014%=      5-min Rain = 0
KME1 110241Z 26005KT 24/M05 A2981 RMK A01 T02431048  RH  014%=      5-min Rain = 0
KME1 110242Z 26007KT 24/M05 A2981 RMK A01 T02421048  RH  014%=      5-min Rain = 0
KME1 110243Z 26006KT 24/M05 A2981 RMK A01 T02421048  RH  014%=      5-min Rain = 0
KME1 110244Z 25006KT 24/M05 A2981 RMK A01 T02421047  RH  014%=      5-min Rain = 0
KME1 110245Z 25007KT 24/M05 A2981 RMK A01 T02411047  RH  014%=      5-min Rain = 0
KME1 110246Z 25007KT 24/M05 A2981 RMK A01 T02411047  RH  014%=      5-min Rain = 0
KME1 110247Z 26008KT 24/M05 A2981 RMK A01 T02401046  RH  015%=      5-min Rain = 0
KME1 110248Z 26006KT 24/M05 A2981 RMK A01 T02401047  RH  015%=      5-min Rain = 0
KME1 110249Z 26007KT 24/M05 A2981 RMK A01 T02401046  RH  015%=      5-min Rain = 0
KME1 110250Z 26007KT 24/M05 A2981 RMK A01 T02391046  RH  015%=      5-min Rain = 0
KME1 110251Z 26007KT 24/M05 A2981 RMK A01 T02391046  RH  015%=      5-min Rain = 0
KME1 110252Z 26007KT 24/M05 A2982 RMK A01 T02381046  RH  015%=      5-min Rain = 0
KME1 110253Z 26008KT 24/M05 A2982 RMK A01 T02381047  RH  015%=      5-min Rain = 0
KME1 110254Z 26007KT 24/M05 A2982 RMK A01 T02391047  RH  015%=      5-min Rain = 0
KME1 110255Z 26007KT 24/M05 A2982 RMK A01 T02401047  RH  014%=      5-min Rain = 0
KME1 110256Z 26007KT 24/M05 A2982 RMK A01 T02411048  RH  014%=      5-min Rain = 0
KME1 110257Z 26006KT 24/M05 A2982 RMK A01 T02411048  RH  014%=      5-min Rain = 0
KME1 110258Z 26005KT 24/M05 A2982 RMK A01 T02411047  RH  014%=      5-min Rain = 0
KME1 110259Z 27005KT 24/M05 A2982 RMK A01 T02411046  RH  014%=      5-min Rain = 0
KME1 110300Z 27005KT 24/M05 A2982 RMK A01 T02401046  RH  015%=      5-min Rain = 0
KME1 110301Z 27005KT 24/M05 A2982 RMK A01 T02401047  RH  015%=      5-min Rain = 0
KME1 110302Z 27005KT 24/M05 A2982 RMK A01 T02401045  RH  015%=      5-min Rain = 0
KME1 110303Z 27004KT 24/M05 A2982 RMK A01 T02391046  RH  015%=      5-min Rain = 0
KME1 110304Z 27005KT 24/M05 A2982 RMK A01 T02381045  RH  015%=      5-min Rain = 0
KME1 110305Z 27005KT 24/M05 A2982 RMK A01 T02371045  RH  015%=      5-min Rain = 0
KME1 110306Z 27004KT 24/M04 A2982 RMK A01 T02361044  RH  015%=      5-min Rain = 0
KME1 110307Z 28004KT 24/M04 A2982 RMK A01 T02361044  RH  015%=      5-min Rain = 0
KME1 110308Z 27004KT 24/M04 A2982 RMK A01 T02351044  RH  015%=      5-min Rain = 0
KME1 110309Z 27004KT 23/M04 A2982 RMK A01 T02341043  RH  015%=      5-min Rain = 0
KME1 110310Z 27004KT 23/M04 A2982 RMK A01 T02331044  RH  015%=      5-min Rain = 0
KME1 110311Z 27004KT 23/M04 A2982 RMK A01 T02331043  RH  016%=      5-min Rain = 0
KME1 110312Z 27005KT 23/M04 A2982 RMK A01 T02331043  RH  016%=      5-min Rain = 0
KME1 110313Z 27005KT 23/M04 A2982 RMK A01 T02321043  RH  016%=      5-min Rain = 0
KME1 110314Z 26005KT 23/M04 A2982 RMK A01 T02321043  RH  016%=      5-min Rain = 0
KME1 110315Z 26007KT 23/M04 A2982 RMK A01 T02331043  RH  016%=      5-min Rain = 0
KME1 110316Z 26006KT 23/M04 A2982 RMK A01 T02341044  RH  015%=      5-min Rain = 0
KME1 110317Z 26007KT 24/M05 A2982 RMK A01 T02351045  RH  015%=      5-min Rain = 0
KME1 110318Z 26006KT 24/M05 A2982 RMK A01 T02361046  RH  015%=      5-min Rain = 0
KME1 110319Z 26006KT 24/M05 A2982 RMK A01 T02381046  RH  015%=      5-min Rain = 0
KME1 110320Z 26007KT 24/M05 A2982 RMK A01 T02381046  RH  015%=      5-min Rain = 0
KME1 110321Z 26006KT 24/M05 A2982 RMK A01 T02391046  RH  015%=      5-min Rain = 0
KME1 110322Z 26007KT 24/M05 A2982 RMK A01 T02401047  RH  015%=      5-min Rain = 0
KME1 110323Z 26006KT 24/M05 A2982 RMK A01 T02411047  RH  014%=      5-min Rain = 0
KME1 110324Z 26007KT 24/M05 A2982 RMK A01 T02411046  RH  014%=      5-min Rain = 0
KME1 110325Z 26007KT 24/M05 A2982 RMK A01 T02411047  RH  014%=      5-min Rain = 0
KME1 110326Z 26008KT 24/M05 A2982 RMK A01 T02421047  RH  014%=      5-min Rain = 0
KME1 110327Z 26006KT 24/M05 A2982 RMK A01 T02421046  RH  014%=      5-min Rain = 0
KME1 110328Z 26007KT 24/M05 A2982 RMK A01 T02421047  RH  014%=      5-min Rain = 0
KME1 110329Z 26007KT 24/M05 A2982 RMK A01 T02431047  RH  014%=      5-min Rain = 0
KME1 110330Z 27006KT 24/M05 A2982 RMK A01 T02431047  RH  014%=      5-min Rain = 0
KME1 110331Z 27006KT 24/M05 A2982 RMK A01 T02431047  RH  014%=      5-min Rain = 0
KME1 110332Z 27006KT 24/M05 A2982 RMK A01 T02431047  RH  014%=      5-min Rain = 0
KME1 110333Z 27006KT 24/M05 A2982 RMK A01 T02431046  RH  014%=      5-min Rain = 0
KME1 110334Z 28005KT 24/M05 A2982 RMK A01 T02431046  RH  014%=      5-min Rain = 0
KME1 110335Z 28005KT 24/M05 A2982 RMK A01 T02431045  RH  014%=      5-min Rain = 0
KME1 110336Z 28005KT 24/M05 A2982 RMK A01 T02411045  RH  015%=      5-min Rain = 0
KME1 110337Z 28006KT 24/M04 A2982 RMK A01 T02401044  RH  015%=      5-min Rain = 0
KME1 110338Z 28005KT 24/M04 A2982 RMK A01 T02381044  RH  015%=      5-min Rain = 0
KME1 110339Z 28005KT 24/M04 A2982 RMK A01 T02371044  RH  015%=      5-min Rain = 0
KME1 110340Z 28006KT 24/M04 A2982 RMK A01 T02361043  RH  015%=      5-min Rain = 0
KME1 110341Z 28006KT 24/M04 A2982 RMK A01 T02351043  RH  015%=      5-min Rain = 0
KME1 110342Z 27006KT 23/M04 A2982 RMK A01 T02341043  RH  016%=      5-min Rain = 0
KME1 110343Z 27006KT 23/M04 A2982 RMK A01 T02341043  RH  016%=      5-min Rain = 0
KME1 110344Z 27006KT 23/M04 A2982 RMK A01 T02341042  RH  016%=      5-min Rain = 0
KME1 110345Z 27007KT 23/M04 A2982 RMK A01 T02331043  RH  016%=      5-min Rain = 0
KME1 110346Z 27007KT 23/M04 A2982 RMK A01 T02331042  RH  016%=      5-min Rain = 0
KME1 110347Z 27007KT 23/M04 A2982 RMK A01 T02331043  RH  016%=      5-min Rain = 0
KME1 110348Z 26007KT 23/M04 A2982 RMK A01 T02331043  RH  016%=      5-min Rain = 0
KME1 110349Z 27006KT 23/M04 A2982 RMK A01 T02341043  RH  015%=      5-min Rain = 0
KME1 110350Z 26007KT 23/M04 A2982 RMK A01 T02341043  RH  015%=      5-min Rain = 0
KME1 110351Z 26007KT 24/M04 A2982 RMK A01 T02351043  RH  015%=      5-min Rain = 0
KME1 110352Z 27007KT 24/M04 A2982 RMK A01 T02351043  RH  015%=      5-min Rain = 0
KME1 110353Z 27007KT 24/M04 A2982 RMK A01 T02361043  RH  015%=      5-min Rain = 0
KME1 110354Z 27007KT 24/M04 A2982 RMK A01 T02371044  RH  015%=      5-min Rain = 0
KME1 110355Z 28006KT 24/M04 A2983 RMK A01 T02371043  RH  015%=      5-min Rain = 0
KME1 110356Z 29006KT 24/M04 A2983 RMK A01 T02371043  RH  015%=      5-min Rain = 0
KME1 110357Z 28005KT 24/M04 A2983 RMK A01 T02361042  RH  015%=      5-min Rain = 0
KME1 110358Z 28005KT 24/M04 A2983 RMK A01 T02351041  RH  016%=      5-min Rain = 0
KME1 110359Z 28005KT 23/M04 A2982 RMK A01 T02341041  RH  016%=      5-min Rain = 0
KME1 110400Z 28005KT 23/M04 A2982 RMK A01 T02331041  RH  016%=      5-min Rain = 0
KME1 110401Z 28005KT 23/M04 A2982 RMK A01 T02321040  RH  016%=      5-min Rain = 0
KME1 110402Z 28005KT 23/M04 A2982 RMK A01 T02301040  RH  016%=      5-min Rain = 0
KME1 110403Z 29005KT 23/M04 A2982 RMK A01 T02301040  RH  016%=      5-min Rain = 0
KME1 110404Z 29005KT 23/M04 A2982 RMK A01 T02291039  RH  016%=      5-min Rain = 0
KME1 110405Z 29005KT 23/M04 A2982 RMK A01 T02281039  RH  016%=      5-min Rain = 0
KME1 110406Z 28005KT 23/M04 A2982 RMK A01 T02281039  RH  017%=      5-min Rain = 0
KME1 110407Z 28004KT 23/M04 A2982 RMK A01 T02271039  RH  017%=      5-min Rain = 0
KME1 110408Z 28005KT 23/M04 A2982 RMK A01 T02271039  RH  017%=      5-min Rain = 0
KME1 110409Z 28005KT 23/M04 A2982 RMK A01 T02261039  RH  017%=      5-min Rain = 0
KME1 110410Z 27006KT 23/M04 A2982 RMK A01 T02261039  RH  017%=      5-min Rain = 0
KME1 110411Z 26007KT 23/M04 A2983 RMK A01 T02261039  RH  017%=      5-min Rain = 0
KME1 110412Z 24009KT 23/M04 A2983 RMK A01 T02261038  RH  017%=      5-min Rain = 0
KME1 110413Z 24008KT 23/M04 A2983 RMK A01 T02261037  RH  017%=      5-min Rain = 0
KME1 110414Z 26006KT 23/M04 A2983 RMK A01 T02261037  RH  017%=      5-min Rain = 0
KME1 110415Z 26006KT 23/M04 A2983 RMK A01 T02261038  RH  017%=      5-min Rain = 0
KME1 110416Z 26006KT 23/M04 A2983 RMK A01 T02261038  RH  017%=      5-min Rain = 0
KME1 110417Z 26005KT 23/M04 A2983 RMK A01 T02271038  RH  017%=      5-min Rain = 0
KME1 110418Z 26006KT 23/M04 A2983 RMK A01 T02271038  RH  017%=      5-min Rain = 0
KME1 110419Z 26007KT 23/M04 A2983 RMK A01 T02281039  RH  017%=      5-min Rain = 0
KME1 110420Z 26006KT 23/M04 A2983 RMK A01 T02301039  RH  016%=      5-min Rain = 0
KME1 110421Z 26006KT 23/M04 A2983 RMK A01 T02311039  RH  016%=      5-min Rain = 0
KME1 110422Z 26006KT 23/M04 A2983 RMK A01 T02311040  RH  016%=      5-min Rain = 0
KME1 110423Z 26006KT 23/M04 A2983 RMK A01 T02311040  RH  016%=      5-min Rain = 0
KME1 110424Z 26006KT 23/M04 A2983 RMK A01 T02321040  RH  016%=      5-min Rain = 0
KME1 110425Z 26007KT 23/M04 A2983 RMK A01 T02321041  RH  016%=      5-min Rain = 0
KME1 110426Z 27005KT 23/M04 A2983 RMK A01 T02331041  RH  016%=      5-min Rain = 0
KME1 110427Z 28006KT 23/M04 A2983 RMK A01 T02341041  RH  016%=      5-min Rain = 0
KME1 110428Z 29005KT 23/M04 A2983 RMK A01 T02341041  RH  016%=      5-min Rain = 0
KME1 110429Z 29005KT 23/M04 A2983 RMK A01 T02341040  RH  016%=      5-min Rain = 0
KME1 110430Z 29005KT 23/M04 A2983 RMK A01 T02341040  RH  016%=      5-min Rain = 0
KME1 110431Z 29005KT 23/M04 A2983 RMK A01 T02331039  RH  016%=      5-min Rain = 0
KME1 110432Z 30005KT 23/M04 A2983 RMK A01 T02321039  RH  016%=      5-min Rain = 0
KME1 110433Z 30005KT 23/M04 A2983 RMK A01 T02311038  RH  016%=      5-min Rain = 0
KME1 110434Z 30005KT 23/M04 A2983 RMK A01 T02291037  RH  017%=      5-min Rain = 0
KME1 110435Z 28006KT 23/M04 A2983 RMK A01 T02281037  RH  017%=      5-min Rain = 0
KME1 110436Z 27005KT 23/M04 A2983 RMK A01 T02271037  RH  017%=      5-min Rain = 0
KME1 110437Z 27006KT 23/M04 A2983 RMK A01 T02271036  RH  017%=      5-min Rain = 0
KME1 110438Z 28006KT 23/M04 A2983 RMK A01 T02271036  RH  017%=      5-min Rain = 0
KME1 110439Z 29006KT 23/M04 A2983 RMK A01 T02261036  RH  017%=      5-min Rain = 0
KME1 110440Z 29006KT 23/M04 A2983 RMK A01 T02261036  RH  017%=      5-min Rain = 0
KME1 110441Z 29006KT 23/M04 A2983 RMK A01 T02251036  RH  017%=      5-min Rain = 0
KME1 110442Z 29006KT 23/M04 A2983 RMK A01 T02261036  RH  017%=      5-min Rain = 0
KME1 110443Z 29006KT 23/M04 A2983 RMK A01 T02261036  RH  017%=      5-min Rain = 0
KME1 110444Z 29005KT 23/M04 A2983 RMK A01 T02261036  RH  017%=      5-min Rain = 0
KME1 110445Z 29006KT 23/M04 A2983 RMK A01 T02251036  RH  017%=      5-min Rain = 0
KME1 110446Z 29007KT 23/M04 A2983 RMK A01 T02251035  RH  017%=      5-min Rain = 0
KME1 110447Z 29006KT 22/M04 A2983 RMK A01 T02241035  RH  017%=      5-min Rain = 0
KME1 110448Z 29006KT 22/M04 A2983 RMK A01 T02231035  RH  017%=      5-min Rain = 0
KME1 110449Z 30005KT 22/M04 A2983 RMK A01 T02231035  RH  017%=      5-min Rain = 0
KME1 110450Z 30006KT 22/M04 A2983 RMK A01 T02231035  RH  017%=      5-min Rain = 0
KME1 110451Z 30007KT 22/M04 A2983 RMK A01 T02231035  RH  018%=      5-min Rain = 0
KME1 110452Z 30007KT 22/M04 A2983 RMK A01 T02221035  RH  018%=      5-min Rain = 0
KME1 110453Z 29007KT 22/M04 A2983 RMK A01 T02221035  RH  018%=      5-min Rain = 0
KME1 110454Z 29006KT 22/M04 A2983 RMK A01 T02221035  RH  018%=      5-min Rain = 0
KME1 110455Z 30007KT 22/M04 A2983 RMK A01 T02221035  RH  018%=      5-min Rain = 0
KME1 110456Z 29007KT 22/M03 A2983 RMK A01 T02231034  RH  018%=      5-min Rain = 0
KME1 110457Z 30007KT 22/M04 A2983 RMK A01 T02231035  RH  018%=      5-min Rain = 0
KME1 110458Z 30007KT 22/M03 A2983 RMK A01 T02231034  RH  018%=      5-min Rain = 0
KME1 110459Z 30006KT 22/M03 A2983 RMK A01 T02231033  RH  018%=      5-min Rain = 0
KME1 110500Z 30005KT 22/M03 A2983 RMK A01 T02221033  RH  018%=      5-min Rain = 0
KME1 110501Z 31006KT 22/M03 A2983 RMK A01 T02211033  RH  018%=      5-min Rain = 0
KME1 110502Z 31006KT 22/M03 A2983 RMK A01 T02211033  RH  018%=      5-min Rain = 0
KME1 110503Z 29005KT 22/M03 A2983 RMK A01 T02211032  RH  018%=      5-min Rain = 0
KME1 110504Z 28005KT 22/M03 A2983 RMK A01 T02211033  RH  018%=      5-min Rain = 0
KME1 110505Z 27005KT 22/M03 A2983 RMK A01 T02211033  RH  018%=      5-min Rain = 0
KME1 110506Z 25005KT 22/M03 A2983 RMK A01 T02211033  RH  018%=      5-min Rain = 0
KME1 110507Z 24006KT 22/M03 A2983 RMK A01 T02211033  RH  018%=      5-min Rain = 0
KME1 110508Z 22008KT 22/M03 A2983 RMK A01 T02211033  RH  018%=      5-min Rain = 0
KME1 110509Z 23008KT 22/M03 A2983 RMK A01 T02211033  RH  018%=      5-min Rain = 0
KME1 110510Z 24006KT 22/M03 A2983 RMK A01 T02211032  RH  018%=      5-min Rain = 0
KME1 110511Z 26008KT 22/M03 A2983 RMK A01 T02211033  RH  018%=      5-min Rain = 0
KME1 110512Z 25008KT 22/M04 A2983 RMK A01 T02231035  RH  018%=      5-min Rain = 0
KME1 110513Z 25006KT 23/M03 A2983 RMK A01 T02251034  RH  017%=      5-min Rain = 0
KME1 110514Z 25008KT 23/M03 A2983 RMK A01 T02261034  RH  017%=      5-min Rain = 0
KME1 110515Z 26009KT 23/M04 A2983 RMK A01 T02271035  RH  017%=      5-min Rain = 0
KME1 110516Z 25009KT 23/M03 A2983 RMK A01 T02291034  RH  017%=      5-min Rain = 0
KME1 110517Z 25008KT 23/M03 A2983 RMK A01 T02291034  RH  017%=      5-min Rain = 0
KME1 110518Z 25008KT 23/M03 A2983 RMK A01 T02291034  RH  017%=      5-min Rain = 0
KME1 110519Z 25009G14KT 23/M03 A2984 RMK A01 T02281032  RH  017%=      5-min Rain = 0
KME1 110520Z 26010KT 23/M03 A2984 RMK A01 T02271033  RH  017%=      5-min Rain = 0
KME1 110521Z 26010KT 23/M03 A2984 RMK A01 T02271034  RH  017%=      5-min Rain = 0
KME1 110522Z 26009KT 23/M03 A2984 RMK A01 T02291034  RH  017%=      5-min Rain = 0
KME1 110523Z 27007KT 23/M03 A2984 RMK A01 T02301034  RH  017%=      5-min Rain = 0
KME1 110524Z 27007KT 23/M04 A2984 RMK A01 T02311035  RH  017%=      5-min Rain = 0
KME1 110525Z 26007KT 23/M04 A2984 RMK A01 T02321035  RH  017%=      5-min Rain = 0
KME1 110526Z 26008KT 23/M04 A2984 RMK A01 T02321035  RH  017%=      5-min Rain = 0
KME1 110527Z 27008KT 23/M03 A2984 RMK A01 T02321034  RH  017%=      5-min Rain = 0
KME1 110528Z 26008KT 23/M03 A2984 RMK A01 T02311034  RH  017%=      5-min Rain = 0
KME1 110529Z 27010KT 23/M04 A2984 RMK A01 T02311035  RH  017%=      5-min Rain = 0
KME1 110530Z 27009KT 23/M04 A2984 RMK A01 T02311035  RH  017%=      5-min Rain = 0
KME1 110531Z 27008KT 23/M03 A2984 RMK A01 T02321034  RH  017%=      5-min Rain = 0
KME1 110532Z 27008KT 23/M04 A2984 RMK A01 T02321035  RH  017%=      5-min Rain = 0
KME1 110533Z 27007KT 23/M04 A2984 RMK A01 T02331035  RH  017%=      5-min Rain = 0
KME1 110534Z 27007KT 23/M03 A2984 RMK A01 T02331034  RH  017%=      5-min Rain = 0
KME1 110535Z 27006KT 23/M03 A2984 RMK A01 T02321034  RH  017%=      5-min Rain = 0
KME1 110536Z 28007KT 23/M04 A2984 RMK A01 T02321035  RH  017%=      5-min Rain = 0
KME1 110537Z 27006KT 23/M04 A2984 RMK A01 T02311035  RH  017%=      5-min Rain = 0
KME1 110538Z 27008KT 23/M04 A2984 RMK A01 T02311035  RH  017%=      5-min Rain = 0
KME1 110539Z 26008KT 23/M04 A2984 RMK A01 T02311035  RH  017%=      5-min Rain = 0
KME1 110540Z 26008KT 23/M04 A2984 RMK A01 T02321035  RH  017%=      5-min Rain = 0
KME1 110541Z 26010KT 23/M04 A2984 RMK A01 T02321036  RH  017%=      5-min Rain = 0
KME1 110542Z 26007KT 23/M04 A2984 RMK A01 T02321036  RH  017%=      5-min Rain = 0
KME1 110543Z 27010KT 23/M04 A2984 RMK A01 T02321036  RH  016%=      5-min Rain = 0
KME1 110544Z 26010KT 23/M04 A2984 RMK A01 T02341038  RH  016%=      5-min Rain = 0
KME1 110545Z 27008KT 24/M04 A2984 RMK A01 T02351037  RH  016%=      5-min Rain = 0
KME1 110546Z 27008KT 24/M04 A2984 RMK A01 T02351037  RH  016%=      5-min Rain = 0
KME1 110547Z 27007KT 24/M04 A2984 RMK A01 T02351037  RH  016%=      5-min Rain = 0
KME1 110548Z 27007KT 24/M04 A2984 RMK A01 T02351037  RH  016%=      5-min Rain = 0
KME1 110549Z 26006KT 24/M04 A2984 RMK A01 T02351037  RH  016%=      5-min Rain = 0
KME1 110550Z 27006KT 24/M04 A2984 RMK A01 T02351038  RH  016%=      5-min Rain = 0
KME1 110551Z 26007KT 24/M04 A2984 RMK A01 T02351038  RH  016%=      5-min Rain = 0
KME1 110552Z 26007KT 24/M04 A2984 RMK A01 T02351038  RH  016%=      5-min Rain = 0
KME1 110553Z 26008KT 24/M04 A2984 RMK A01 T02351038  RH  016%=      5-min Rain = 0
KME1 110554Z 26007KT 24/M04 A2984 RMK A01 T02351039  RH  016%=      5-min Rain = 0
KME1 110555Z 26006KT 24/M04 A2984 RMK A01 T02351039  RH  016%=      5-min Rain = 0
KME1 110556Z 27009KT 24/M04 A2984 RMK A01 T02351038  RH  016%=      5-min Rain = 0
KME1 110557Z 27007KT 24/M04 A2984 RMK A01 T02351039  RH  016%=      5-min Rain = 0
KME1 110558Z 27007KT 24/M04 A2984 RMK A01 T02351039  RH  016%=      5-min Rain = 0
KME1 110559Z 27007KT 24/M04 A2984 RMK A01 T02351038  RH  016%=      5-min Rain = 0

Page generated in 0.1079 seconds.